<?xml version="1.0" encoding="UTF-8" standalone="no" ?>
<gpx xmlns="http://www.topografix.com/GPX/1/1" xmlns:xsi="http://www.w3.org/2001/XMLSchema-instance" xsi:schemaLocation="http://www.topografix.com/GPX/1/1 http://www.topografix.com/GPX/1/1/gpx.xsd" version="1.1" creator="VisuGPX - https://www.visugpx.com">
  <metadata>
    <name>2015-04-06 07:30</name>
    <desc><![CDATA[
<h1>OruxMaps</h1><br /><hr align="center" width="480" style="height: 2px; width: 517px"/><h2>Nom: 2015-04-06 07:30</h2><br /><p>Temps de départ: 04/06/2015 07:30</p><p>Temps d'arrivée: 04/06/2015 14:58</p><p>Distance: 14,6km (07:27)</p><p>Temps déplacement: 03:57</p><p>Vitesse moyenne: 2km/h</p><p>Vitesse moyenne: 3,7km/h</p><p>Vitess Max.: 31,4km/h</p><p>Altitude minimale: 1145m</p><p>Altitude maximale: 2166m</p><p>Vitesse d'élévation: 398,2m/h</p><p>Vitesse de descente: -802,4m/h</p><p>Gain Altitude: 1940m</p><p>Perte Altitude: -1943m</p><p>Temps d'élévation: 04:52</p><p>Temps de descente: 02:25</p><hr align="center" width="480" style="height: 2px; width: 517px"/>]]></desc>
  </metadata>
  <trk>
    <name><![CDATA[2015-04-06 07:30]]></name>
    <desc><![CDATA[<h1>OruxMaps</h1><br /><hr align="center" width="480" style="height: 2px; width: 517px"/><h2>Nom: 2015-04-06 07:30</h2><br /><p>Temps de départ: 04/06/2015 07:30</p><p>Temps d'arrivée: 04/06/2015 14:58</p><p>Distance: 14,6km (07:27)</p><p>Temps déplacement: 03:57</p><p>Vitesse moyenne: 2km/h</p><p>Vitesse moyenne: 3,7km/h</p><p>Vitess Max.: 31,4km/h</p><p>Altitude minimale: 1145m</p><p>Altitude maximale: 2166m</p><p>Vitesse d'élévation: 398,2m/h</p><p>Vitesse de descente: -802,4m/h</p><p>Gain Altitude: 1940m</p><p>Perte Altitude: -1943m</p><p>Temps d'élévation: 04:52</p><p>Temps de descente: 02:25</p><hr align="center" width="480" style="height: 2px; width: 517px"/>]]></desc>
    <trkseg>
      <trkpt lat="45.71344" lon="6.27506">
        <ele>1148.56</ele>
        <time>2015-04-06T05:30:57Z</time>
      </trkpt>
      <trkpt lat="45.71328" lon="6.27493">
        <ele>1148.61</ele>
        <time>2015-04-06T05:36:58Z</time>
      </trkpt>
      <trkpt lat="45.71334" lon="6.27518">
        <ele>1149.5</ele>
        <time>2015-04-06T05:37:20Z</time>
      </trkpt>
      <trkpt lat="45.71332" lon="6.27544">
        <ele>1151.54</ele>
        <time>2015-04-06T05:37:40Z</time>
      </trkpt>
      <trkpt lat="45.71313" lon="6.27545">
        <ele>1150.47</ele>
        <time>2015-04-06T05:38:22Z</time>
      </trkpt>
      <trkpt lat="45.71296" lon="6.27538">
        <ele>1156.47</ele>
        <time>2015-04-06T05:39:54Z</time>
      </trkpt>
      <trkpt lat="45.71278" lon="6.27533">
        <ele>1161.19</ele>
        <time>2015-04-06T05:40:20Z</time>
      </trkpt>
      <trkpt lat="45.71262" lon="6.27547">
        <ele>1164.44</ele>
        <time>2015-04-06T05:40:51Z</time>
      </trkpt>
      <trkpt lat="45.71246" lon="6.27538">
        <ele>1168.25</ele>
        <time>2015-04-06T05:41:28Z</time>
      </trkpt>
      <trkpt lat="45.71235" lon="6.27516">
        <ele>1178.93</ele>
        <time>2015-04-06T05:42:05Z</time>
      </trkpt>
      <trkpt lat="45.71218" lon="6.27506">
        <ele>1183.92</ele>
        <time>2015-04-06T05:42:41Z</time>
      </trkpt>
      <trkpt lat="45.712" lon="6.27505">
        <ele>1191.04</ele>
        <time>2015-04-06T05:43:30Z</time>
      </trkpt>
      <trkpt lat="45.71183" lon="6.27516">
        <ele>1196.51</ele>
        <time>2015-04-06T05:44:02Z</time>
      </trkpt>
      <trkpt lat="45.71167" lon="6.27528">
        <ele>1204.94</ele>
        <time>2015-04-06T05:44:37Z</time>
      </trkpt>
      <trkpt lat="45.71149" lon="6.27524">
        <ele>1212.74</ele>
        <time>2015-04-06T05:45:15Z</time>
      </trkpt>
      <trkpt lat="45.71144" lon="6.27499">
        <ele>1215.47</ele>
        <time>2015-04-06T05:45:44Z</time>
      </trkpt>
      <trkpt lat="45.71132" lon="6.27479">
        <ele>1220.81</ele>
        <time>2015-04-06T05:46:14Z</time>
      </trkpt>
      <trkpt lat="45.71114" lon="6.27483">
        <ele>1226.5</ele>
        <time>2015-04-06T05:46:53Z</time>
      </trkpt>
      <trkpt lat="45.71096" lon="6.27489">
        <ele>1234.64</ele>
        <time>2015-04-06T05:47:29Z</time>
      </trkpt>
      <trkpt lat="45.71079" lon="6.27496">
        <ele>1240.79</ele>
        <time>2015-04-06T05:47:56Z</time>
      </trkpt>
      <trkpt lat="45.71061" lon="6.27505">
        <ele>1244.47</ele>
        <time>2015-04-06T05:48:21Z</time>
      </trkpt>
      <trkpt lat="45.71044" lon="6.27514">
        <ele>1247.42</ele>
        <time>2015-04-06T05:48:44Z</time>
      </trkpt>
      <trkpt lat="45.71028" lon="6.27527">
        <ele>1255.31</ele>
        <time>2015-04-06T05:49:08Z</time>
      </trkpt>
      <trkpt lat="45.7101" lon="6.27531">
        <ele>1256.87</ele>
        <time>2015-04-06T05:49:35Z</time>
      </trkpt>
      <trkpt lat="45.70994" lon="6.27546">
        <ele>1266.02</ele>
        <time>2015-04-06T05:50:01Z</time>
      </trkpt>
      <trkpt lat="45.70976" lon="6.27548">
        <ele>1269.87</ele>
        <time>2015-04-06T05:50:37Z</time>
      </trkpt>
      <trkpt lat="45.7096" lon="6.27559">
        <ele>1276.24</ele>
        <time>2015-04-06T05:51:06Z</time>
      </trkpt>
      <trkpt lat="45.70944" lon="6.27574">
        <ele>1281.04</ele>
        <time>2015-04-06T05:51:36Z</time>
      </trkpt>
      <trkpt lat="45.70936" lon="6.27598">
        <ele>1290.68</ele>
        <time>2015-04-06T05:52:05Z</time>
      </trkpt>
      <trkpt lat="45.70928" lon="6.27621">
        <ele>1296.25</ele>
        <time>2015-04-06T05:52:31Z</time>
      </trkpt>
      <trkpt lat="45.70916" lon="6.27642">
        <ele>1302.16</ele>
        <time>2015-04-06T05:53:10Z</time>
      </trkpt>
      <trkpt lat="45.70902" lon="6.27659">
        <ele>1306.25</ele>
        <time>2015-04-06T05:53:32Z</time>
      </trkpt>
      <trkpt lat="45.70888" lon="6.27677">
        <ele>1312.06</ele>
        <time>2015-04-06T05:53:56Z</time>
      </trkpt>
      <trkpt lat="45.7087" lon="6.2768">
        <ele>1317.47</ele>
        <time>2015-04-06T05:54:22Z</time>
      </trkpt>
      <trkpt lat="45.70859" lon="6.27657">
        <ele>1322.11</ele>
        <time>2015-04-06T05:54:52Z</time>
      </trkpt>
      <trkpt lat="45.70855" lon="6.27632">
        <ele>1328.01</ele>
        <time>2015-04-06T05:55:25Z</time>
      </trkpt>
      <trkpt lat="45.70847" lon="6.27609">
        <ele>1333.33</ele>
        <time>2015-04-06T05:55:58Z</time>
      </trkpt>
      <trkpt lat="45.7084" lon="6.27584">
        <ele>1337.21</ele>
        <time>2015-04-06T05:56:19Z</time>
      </trkpt>
      <trkpt lat="45.70833" lon="6.27559">
        <ele>1339.63</ele>
        <time>2015-04-06T05:56:48Z</time>
      </trkpt>
      <trkpt lat="45.70829" lon="6.27534">
        <ele>1352.08</ele>
        <time>2015-04-06T05:57:25Z</time>
      </trkpt>
      <trkpt lat="45.70825" lon="6.27508">
        <ele>1359.15</ele>
        <time>2015-04-06T05:57:46Z</time>
      </trkpt>
      <trkpt lat="45.70821" lon="6.27483">
        <ele>1364.16</ele>
        <time>2015-04-06T05:58:10Z</time>
      </trkpt>
      <trkpt lat="45.70818" lon="6.27457">
        <ele>1368.01</ele>
        <time>2015-04-06T05:58:40Z</time>
      </trkpt>
      <trkpt lat="45.70812" lon="6.27432">
        <ele>1373.78</ele>
        <time>2015-04-06T05:59:07Z</time>
      </trkpt>
      <trkpt lat="45.70804" lon="6.27408">
        <ele>1379.95</ele>
        <time>2015-04-06T05:59:34Z</time>
      </trkpt>
      <trkpt lat="45.70788" lon="6.27396">
        <ele>1387.7</ele>
        <time>2015-04-06T06:00:02Z</time>
      </trkpt>
      <trkpt lat="45.70774" lon="6.27412">
        <ele>1391.02</ele>
        <time>2015-04-06T06:00:41Z</time>
      </trkpt>
      <trkpt lat="45.70766" lon="6.27435">
        <ele>1408.4</ele>
        <time>2015-04-06T06:01:27Z</time>
      </trkpt>
      <trkpt lat="45.70748" lon="6.27427">
        <ele>1404.38</ele>
        <time>2015-04-06T06:01:54Z</time>
      </trkpt>
      <trkpt lat="45.70731" lon="6.27434">
        <ele>1413.65</ele>
        <time>2015-04-06T06:02:50Z</time>
      </trkpt>
      <trkpt lat="45.70714" lon="6.27424">
        <ele>1422.15</ele>
        <time>2015-04-06T06:03:19Z</time>
      </trkpt>
      <trkpt lat="45.70697" lon="6.27412">
        <ele>1423.03</ele>
        <time>2015-04-06T06:03:47Z</time>
      </trkpt>
      <trkpt lat="45.70683" lon="6.27396">
        <ele>1431.44</ele>
        <time>2015-04-06T06:04:17Z</time>
      </trkpt>
      <trkpt lat="45.70667" lon="6.27383">
        <ele>1435.01</ele>
        <time>2015-04-06T06:04:49Z</time>
      </trkpt>
      <trkpt lat="45.70651" lon="6.2737">
        <ele>1439.03</ele>
        <time>2015-04-06T06:05:20Z</time>
      </trkpt>
      <trkpt lat="45.70634" lon="6.2736">
        <ele>1445.35</ele>
        <time>2015-04-06T06:05:51Z</time>
      </trkpt>
      <trkpt lat="45.70616" lon="6.27363">
        <ele>1448.94</ele>
        <time>2015-04-06T06:06:23Z</time>
      </trkpt>
      <trkpt lat="45.70607" lon="6.27387">
        <ele>1452.38</ele>
        <time>2015-04-06T06:06:58Z</time>
      </trkpt>
      <trkpt lat="45.70605" lon="6.27413">
        <ele>1461.27</ele>
        <time>2015-04-06T06:07:31Z</time>
      </trkpt>
      <trkpt lat="45.70596" lon="6.27436">
        <ele>1466.54</ele>
        <time>2015-04-06T06:08:03Z</time>
      </trkpt>
      <trkpt lat="45.7058" lon="6.27447">
        <ele>1468.61</ele>
        <time>2015-04-06T06:08:29Z</time>
      </trkpt>
      <trkpt lat="45.70563" lon="6.27459">
        <ele>1475.75</ele>
        <time>2015-04-06T06:09:13Z</time>
      </trkpt>
      <trkpt lat="45.70562" lon="6.27485">
        <ele>1484.48</ele>
        <time>2015-04-06T06:09:45Z</time>
      </trkpt>
      <trkpt lat="45.70562" lon="6.27511">
        <ele>1493.73</ele>
        <time>2015-04-06T06:10:17Z</time>
      </trkpt>
      <trkpt lat="45.70545" lon="6.27522">
        <ele>1507.4</ele>
        <time>2015-04-06T06:11:04Z</time>
      </trkpt>
      <trkpt lat="45.70529" lon="6.27509">
        <ele>1514.38</ele>
        <time>2015-04-06T06:11:28Z</time>
      </trkpt>
      <trkpt lat="45.70512" lon="6.27498">
        <ele>1518.65</ele>
        <time>2015-04-06T06:11:55Z</time>
      </trkpt>
      <trkpt lat="45.70497" lon="6.27485">
        <ele>1523.16</ele>
        <time>2015-04-06T06:12:24Z</time>
      </trkpt>
      <trkpt lat="45.70481" lon="6.27472">
        <ele>1525.51</ele>
        <time>2015-04-06T06:12:48Z</time>
      </trkpt>
      <trkpt lat="45.70468" lon="6.27454">
        <ele>1531.3</ele>
        <time>2015-04-06T06:13:15Z</time>
      </trkpt>
      <trkpt lat="45.70453" lon="6.2744">
        <ele>1537.72</ele>
        <time>2015-04-06T06:13:41Z</time>
      </trkpt>
      <trkpt lat="45.70439" lon="6.27422">
        <ele>1537.4</ele>
        <time>2015-04-06T06:14:05Z</time>
      </trkpt>
      <trkpt lat="45.70422" lon="6.27412">
        <ele>1543.43</ele>
        <time>2015-04-06T06:14:28Z</time>
      </trkpt>
      <trkpt lat="45.70404" lon="6.27411">
        <ele>1547.78</ele>
        <time>2015-04-06T06:14:52Z</time>
      </trkpt>
      <trkpt lat="45.70386" lon="6.2741">
        <ele>1555.99</ele>
        <time>2015-04-06T06:15:27Z</time>
      </trkpt>
      <trkpt lat="45.70367" lon="6.27412">
        <ele>1559.48</ele>
        <time>2015-04-06T06:15:54Z</time>
      </trkpt>
      <trkpt lat="45.70349" lon="6.27408">
        <ele>1564.33</ele>
        <time>2015-04-06T06:16:23Z</time>
      </trkpt>
      <trkpt lat="45.70339" lon="6.27387">
        <ele>1566.9</ele>
        <time>2015-04-06T06:16:51Z</time>
      </trkpt>
      <trkpt lat="45.70323" lon="6.27373">
        <ele>1569.8</ele>
        <time>2015-04-06T06:17:32Z</time>
      </trkpt>
      <trkpt lat="45.70313" lon="6.27352">
        <ele>1576.59</ele>
        <time>2015-04-06T06:18:07Z</time>
      </trkpt>
      <trkpt lat="45.70303" lon="6.27329">
        <ele>1579.48</ele>
        <time>2015-04-06T06:18:25Z</time>
      </trkpt>
      <trkpt lat="45.70297" lon="6.27304">
        <ele>1585.46</ele>
        <time>2015-04-06T06:18:46Z</time>
      </trkpt>
      <trkpt lat="45.70287" lon="6.27283">
        <ele>1588.39</ele>
        <time>2015-04-06T06:19:11Z</time>
      </trkpt>
      <trkpt lat="45.70276" lon="6.27262">
        <ele>1592.75</ele>
        <time>2015-04-06T06:19:31Z</time>
      </trkpt>
      <trkpt lat="45.70266" lon="6.2724">
        <ele>1593.46</ele>
        <time>2015-04-06T06:19:53Z</time>
      </trkpt>
      <trkpt lat="45.70261" lon="6.27215">
        <ele>1595.34</ele>
        <time>2015-04-06T06:20:18Z</time>
      </trkpt>
      <trkpt lat="45.7025" lon="6.27194">
        <ele>1600.09</ele>
        <time>2015-04-06T06:20:54Z</time>
      </trkpt>
      <trkpt lat="45.70245" lon="6.27169">
        <ele>1606.9</ele>
        <time>2015-04-06T06:21:21Z</time>
      </trkpt>
      <trkpt lat="45.70238" lon="6.27144">
        <ele>1615.51</ele>
        <time>2015-04-06T06:21:50Z</time>
      </trkpt>
      <trkpt lat="45.7022" lon="6.27147">
        <ele>1618.58</ele>
        <time>2015-04-06T06:22:18Z</time>
      </trkpt>
      <trkpt lat="45.70213" lon="6.27171">
        <ele>1620.89</ele>
        <time>2015-04-06T06:22:43Z</time>
      </trkpt>
      <trkpt lat="45.70202" lon="6.27194">
        <ele>1619.26</ele>
        <time>2015-04-06T06:23:05Z</time>
      </trkpt>
      <trkpt lat="45.70196" lon="6.27218">
        <ele>1627</ele>
        <time>2015-04-06T06:23:26Z</time>
      </trkpt>
      <trkpt lat="45.70183" lon="6.27199">
        <ele>1640.76</ele>
        <time>2015-04-06T06:24:11Z</time>
      </trkpt>
      <trkpt lat="45.70177" lon="6.27175">
        <ele>1644.63</ele>
        <time>2015-04-06T06:24:31Z</time>
      </trkpt>
      <trkpt lat="45.70169" lon="6.27151">
        <ele>1650.32</ele>
        <time>2015-04-06T06:24:52Z</time>
      </trkpt>
      <trkpt lat="45.70167" lon="6.27125">
        <ele>1656.39</ele>
        <time>2015-04-06T06:25:26Z</time>
      </trkpt>
      <trkpt lat="45.70159" lon="6.27102">
        <ele>1658.79</ele>
        <time>2015-04-06T06:25:46Z</time>
      </trkpt>
      <trkpt lat="45.70143" lon="6.2709">
        <ele>1662.99</ele>
        <time>2015-04-06T06:26:08Z</time>
      </trkpt>
      <trkpt lat="45.70133" lon="6.27113">
        <ele>1670.23</ele>
        <time>2015-04-06T06:26:38Z</time>
      </trkpt>
      <trkpt lat="45.70127" lon="6.27137">
        <ele>1673.18</ele>
        <time>2015-04-06T06:26:59Z</time>
      </trkpt>
      <trkpt lat="45.70126" lon="6.27163">
        <ele>1669.99</ele>
        <time>2015-04-06T06:27:19Z</time>
      </trkpt>
      <trkpt lat="45.70126" lon="6.2719">
        <ele>1674.3</ele>
        <time>2015-04-06T06:27:34Z</time>
      </trkpt>
      <trkpt lat="45.70115" lon="6.27211">
        <ele>1675.63</ele>
        <time>2015-04-06T06:27:57Z</time>
      </trkpt>
      <trkpt lat="45.70105" lon="6.27234">
        <ele>1679.04</ele>
        <time>2015-04-06T06:28:17Z</time>
      </trkpt>
      <trkpt lat="45.70094" lon="6.27254">
        <ele>1682.44</ele>
        <time>2015-04-06T06:28:40Z</time>
      </trkpt>
      <trkpt lat="45.70086" lon="6.27278">
        <ele>1683.42</ele>
        <time>2015-04-06T06:29:04Z</time>
      </trkpt>
      <trkpt lat="45.70084" lon="6.27305">
        <ele>1689.52</ele>
        <time>2015-04-06T06:29:27Z</time>
      </trkpt>
      <trkpt lat="45.70074" lon="6.27327">
        <ele>1697.01</ele>
        <time>2015-04-06T06:29:58Z</time>
      </trkpt>
      <trkpt lat="45.70068" lon="6.27351">
        <ele>1703.53</ele>
        <time>2015-04-06T06:30:31Z</time>
      </trkpt>
      <trkpt lat="45.7006" lon="6.27374">
        <ele>1700.42</ele>
        <time>2015-04-06T06:31:03Z</time>
      </trkpt>
      <trkpt lat="45.70052" lon="6.2735">
        <ele>1716.52</ele>
        <time>2015-04-06T06:31:47Z</time>
      </trkpt>
      <trkpt lat="45.70042" lon="6.27328">
        <ele>1716.05</ele>
        <time>2015-04-06T06:32:07Z</time>
      </trkpt>
      <trkpt lat="45.70037" lon="6.27302">
        <ele>1718.75</ele>
        <time>2015-04-06T06:32:30Z</time>
      </trkpt>
      <trkpt lat="45.70033" lon="6.27276">
        <ele>1726.32</ele>
        <time>2015-04-06T06:33:00Z</time>
      </trkpt>
      <trkpt lat="45.7003" lon="6.2725">
        <ele>1728.48</ele>
        <time>2015-04-06T06:33:23Z</time>
      </trkpt>
      <trkpt lat="45.70022" lon="6.27225">
        <ele>1728.36</ele>
        <time>2015-04-06T06:33:36Z</time>
      </trkpt>
      <trkpt lat="45.70017" lon="6.272">
        <ele>1729.18</ele>
        <time>2015-04-06T06:33:54Z</time>
      </trkpt>
      <trkpt lat="45.70013" lon="6.27174">
        <ele>1730.5</ele>
        <time>2015-04-06T06:34:18Z</time>
      </trkpt>
      <trkpt lat="45.70011" lon="6.27148">
        <ele>1735.49</ele>
        <time>2015-04-06T06:34:38Z</time>
      </trkpt>
      <trkpt lat="45.69993" lon="6.27152">
        <ele>1745</ele>
        <time>2015-04-06T06:35:12Z</time>
      </trkpt>
      <trkpt lat="45.69985" lon="6.27176">
        <ele>1747.52</ele>
        <time>2015-04-06T06:35:38Z</time>
      </trkpt>
      <trkpt lat="45.6998" lon="6.27201">
        <ele>1752.4</ele>
        <time>2015-04-06T06:36:04Z</time>
      </trkpt>
      <trkpt lat="45.69977" lon="6.27227">
        <ele>1759.69</ele>
        <time>2015-04-06T06:36:35Z</time>
      </trkpt>
      <trkpt lat="45.69969" lon="6.2725">
        <ele>1766.59</ele>
        <time>2015-04-06T06:37:11Z</time>
      </trkpt>
      <trkpt lat="45.69954" lon="6.27264">
        <ele>1773.4</ele>
        <time>2015-04-06T06:37:51Z</time>
      </trkpt>
      <trkpt lat="45.69936" lon="6.2726">
        <ele>1780.53</ele>
        <time>2015-04-06T06:38:34Z</time>
      </trkpt>
      <trkpt lat="45.69921" lon="6.27244">
        <ele>1781.41</ele>
        <time>2015-04-06T06:38:57Z</time>
      </trkpt>
      <trkpt lat="45.69912" lon="6.27222">
        <ele>1786.03</ele>
        <time>2015-04-06T06:39:22Z</time>
      </trkpt>
      <trkpt lat="45.69906" lon="6.27197">
        <ele>1794.25</ele>
        <time>2015-04-06T06:39:49Z</time>
      </trkpt>
      <trkpt lat="45.69896" lon="6.27174">
        <ele>1800.59</ele>
        <time>2015-04-06T06:40:16Z</time>
      </trkpt>
      <trkpt lat="45.69886" lon="6.27153">
        <ele>1803.03</ele>
        <time>2015-04-06T06:40:48Z</time>
      </trkpt>
      <trkpt lat="45.69878" lon="6.2713">
        <ele>1805.37</ele>
        <time>2015-04-06T06:41:18Z</time>
      </trkpt>
      <trkpt lat="45.69862" lon="6.27116">
        <ele>1813.36</ele>
        <time>2015-04-06T06:41:46Z</time>
      </trkpt>
      <trkpt lat="45.69849" lon="6.27134">
        <ele>1820.4</ele>
        <time>2015-04-06T06:42:26Z</time>
      </trkpt>
      <trkpt lat="45.69834" lon="6.27151">
        <ele>1825.37</ele>
        <time>2015-04-06T06:42:54Z</time>
      </trkpt>
      <trkpt lat="45.69816" lon="6.27149">
        <ele>1824.5</ele>
        <time>2015-04-06T06:45:25Z</time>
      </trkpt>
      <trkpt lat="45.69801" lon="6.27131">
        <ele>1826.68</ele>
        <time>2015-04-06T06:48:13Z</time>
      </trkpt>
      <trkpt lat="45.69795" lon="6.27106">
        <ele>1826.67</ele>
        <time>2015-04-06T06:48:24Z</time>
      </trkpt>
      <trkpt lat="45.69787" lon="6.27083">
        <ele>1830</ele>
        <time>2015-04-06T06:48:42Z</time>
      </trkpt>
      <trkpt lat="45.69783" lon="6.27058">
        <ele>1839.51</ele>
        <time>2015-04-06T06:49:15Z</time>
      </trkpt>
      <trkpt lat="45.69774" lon="6.27035">
        <ele>1842.15</ele>
        <time>2015-04-06T06:49:48Z</time>
      </trkpt>
      <trkpt lat="45.6976" lon="6.27019">
        <ele>1842.52</ele>
        <time>2015-04-06T06:50:17Z</time>
      </trkpt>
      <trkpt lat="45.69749" lon="6.26999">
        <ele>1846.09</ele>
        <time>2015-04-06T06:50:53Z</time>
      </trkpt>
      <trkpt lat="45.69737" lon="6.26978">
        <ele>1854.3</ele>
        <time>2015-04-06T06:51:10Z</time>
      </trkpt>
      <trkpt lat="45.6972" lon="6.26968">
        <ele>1854.8</ele>
        <time>2015-04-06T06:51:35Z</time>
      </trkpt>
      <trkpt lat="45.69724" lon="6.26943">
        <ele>1870.59</ele>
        <time>2015-04-06T06:52:24Z</time>
      </trkpt>
      <trkpt lat="45.69709" lon="6.26927">
        <ele>1874.33</ele>
        <time>2015-04-06T06:52:48Z</time>
      </trkpt>
      <trkpt lat="45.69694" lon="6.26911">
        <ele>1874.77</ele>
        <time>2015-04-06T06:53:11Z</time>
      </trkpt>
      <trkpt lat="45.69689" lon="6.26885">
        <ele>1879.33</ele>
        <time>2015-04-06T06:53:57Z</time>
      </trkpt>
      <trkpt lat="45.6969" lon="6.26859">
        <ele>1887.78</ele>
        <time>2015-04-06T06:54:43Z</time>
      </trkpt>
      <trkpt lat="45.69676" lon="6.26841">
        <ele>1893.49</ele>
        <time>2015-04-06T06:55:16Z</time>
      </trkpt>
      <trkpt lat="45.69675" lon="6.26815">
        <ele>1899.28</ele>
        <time>2015-04-06T06:55:48Z</time>
      </trkpt>
      <trkpt lat="45.69661" lon="6.26799">
        <ele>1899.42</ele>
        <time>2015-04-06T06:56:31Z</time>
      </trkpt>
      <trkpt lat="45.69645" lon="6.26787">
        <ele>1907.41</ele>
        <time>2015-04-06T06:57:14Z</time>
      </trkpt>
      <trkpt lat="45.69635" lon="6.26766">
        <ele>1920.53</ele>
        <time>2015-04-06T06:58:13Z</time>
      </trkpt>
      <trkpt lat="45.69619" lon="6.26751">
        <ele>1930.19</ele>
        <time>2015-04-06T06:59:08Z</time>
      </trkpt>
      <trkpt lat="45.69603" lon="6.26764">
        <ele>1935.39</ele>
        <time>2015-04-06T07:00:19Z</time>
      </trkpt>
      <trkpt lat="45.69592" lon="6.26743">
        <ele>1947.32</ele>
        <time>2015-04-06T07:00:59Z</time>
      </trkpt>
      <trkpt lat="45.69587" lon="6.26718">
        <ele>1954.25</ele>
        <time>2015-04-06T07:01:41Z</time>
      </trkpt>
      <trkpt lat="45.69583" lon="6.26692">
        <ele>1961.47</ele>
        <time>2015-04-06T07:02:28Z</time>
      </trkpt>
      <trkpt lat="45.69565" lon="6.26695">
        <ele>1956.55</ele>
        <time>2015-04-06T07:03:04Z</time>
      </trkpt>
      <trkpt lat="45.69547" lon="6.26692">
        <ele>1965.81</ele>
        <time>2015-04-06T07:03:32Z</time>
      </trkpt>
      <trkpt lat="45.69529" lon="6.26689">
        <ele>1970.53</ele>
        <time>2015-04-06T07:04:06Z</time>
      </trkpt>
      <trkpt lat="45.69518" lon="6.26668">
        <ele>1984.44</ele>
        <time>2015-04-06T07:05:15Z</time>
      </trkpt>
      <trkpt lat="45.6953" lon="6.26649">
        <ele>1994.8</ele>
        <time>2015-04-06T07:06:19Z</time>
      </trkpt>
      <trkpt lat="45.69539" lon="6.26626">
        <ele>2003.22</ele>
        <time>2015-04-06T07:07:27Z</time>
      </trkpt>
      <trkpt lat="45.69525" lon="6.26609">
        <ele>2008.38</ele>
        <time>2015-04-06T07:08:39Z</time>
      </trkpt>
      <trkpt lat="45.69538" lon="6.2659">
        <ele>2021.53</ele>
        <time>2015-04-06T07:09:51Z</time>
      </trkpt>
      <trkpt lat="45.69523" lon="6.26575">
        <ele>2022.93</ele>
        <time>2015-04-06T07:10:26Z</time>
      </trkpt>
      <trkpt lat="45.69505" lon="6.26572">
        <ele>2026.84</ele>
        <time>2015-04-06T07:11:07Z</time>
      </trkpt>
      <trkpt lat="45.69488" lon="6.26562">
        <ele>2036.01</ele>
        <time>2015-04-06T07:11:46Z</time>
      </trkpt>
      <trkpt lat="45.69486" lon="6.26536">
        <ele>2046</ele>
        <time>2015-04-06T07:13:11Z</time>
      </trkpt>
      <trkpt lat="45.69469" lon="6.26523">
        <ele>2050.7</ele>
        <time>2015-04-06T07:13:39Z</time>
      </trkpt>
      <trkpt lat="45.69452" lon="6.26514">
        <ele>2052</ele>
        <time>2015-04-06T07:14:08Z</time>
      </trkpt>
      <trkpt lat="45.69435" lon="6.26506">
        <ele>2059.75</ele>
        <time>2015-04-06T07:14:58Z</time>
      </trkpt>
      <trkpt lat="45.69419" lon="6.26494">
        <ele>2065.95</ele>
        <time>2015-04-06T07:15:28Z</time>
      </trkpt>
      <trkpt lat="45.69401" lon="6.26488">
        <ele>2066.52</ele>
        <time>2015-04-06T07:16:03Z</time>
      </trkpt>
      <trkpt lat="45.69383" lon="6.26485">
        <ele>2072.43</ele>
        <time>2015-04-06T07:16:37Z</time>
      </trkpt>
      <trkpt lat="45.69364" lon="6.26483">
        <ele>2074.93</ele>
        <time>2015-04-06T07:17:07Z</time>
      </trkpt>
      <trkpt lat="45.69346" lon="6.26475">
        <ele>2076.28</ele>
        <time>2015-04-06T07:17:23Z</time>
      </trkpt>
      <trkpt lat="45.69327" lon="6.26472">
        <ele>2076.48</ele>
        <time>2015-04-06T07:17:38Z</time>
      </trkpt>
      <trkpt lat="45.6931" lon="6.26465">
        <ele>2072.47</ele>
        <time>2015-04-06T07:17:54Z</time>
      </trkpt>
      <trkpt lat="45.6929" lon="6.26465">
        <ele>2069.34</ele>
        <time>2015-04-06T07:26:44Z</time>
      </trkpt>
      <trkpt lat="45.69274" lon="6.26453">
        <ele>2067.03</ele>
        <time>2015-04-06T07:26:49Z</time>
      </trkpt>
      <trkpt lat="45.69266" lon="6.26427">
        <ele>2062.3</ele>
        <time>2015-04-06T07:27:08Z</time>
      </trkpt>
      <trkpt lat="45.69277" lon="6.26405">
        <ele>2051.03</ele>
        <time>2015-04-06T07:27:17Z</time>
      </trkpt>
      <trkpt lat="45.69291" lon="6.26385">
        <ele>2038.24</ele>
        <time>2015-04-06T07:27:25Z</time>
      </trkpt>
      <trkpt lat="45.69307" lon="6.26371">
        <ele>2032.81</ele>
        <time>2015-04-06T07:27:31Z</time>
      </trkpt>
      <trkpt lat="45.69324" lon="6.26359">
        <ele>2025.05</ele>
        <time>2015-04-06T07:27:38Z</time>
      </trkpt>
      <trkpt lat="45.69332" lon="6.26333">
        <ele>2015.07</ele>
        <time>2015-04-06T07:27:45Z</time>
      </trkpt>
      <trkpt lat="45.69347" lon="6.2632">
        <ele>2005.64</ele>
        <time>2015-04-06T07:27:50Z</time>
      </trkpt>
      <trkpt lat="45.69361" lon="6.26302">
        <ele>1995</ele>
        <time>2015-04-06T07:27:56Z</time>
      </trkpt>
      <trkpt lat="45.69379" lon="6.26293">
        <ele>1970.3</ele>
        <time>2015-04-06T07:28:03Z</time>
      </trkpt>
      <trkpt lat="45.69398" lon="6.26289">
        <ele>1951.72</ele>
        <time>2015-04-06T07:28:10Z</time>
      </trkpt>
      <trkpt lat="45.69417" lon="6.2628">
        <ele>1931.39</ele>
        <time>2015-04-06T07:29:18Z</time>
      </trkpt>
      <trkpt lat="45.69436" lon="6.26273">
        <ele>1922.53</ele>
        <time>2015-04-06T07:29:23Z</time>
      </trkpt>
      <trkpt lat="45.6945" lon="6.26252">
        <ele>1909.2</ele>
        <time>2015-04-06T07:29:30Z</time>
      </trkpt>
      <trkpt lat="45.6947" lon="6.2625">
        <ele>1905.5</ele>
        <time>2015-04-06T07:29:39Z</time>
      </trkpt>
      <trkpt lat="45.69486" lon="6.26265">
        <ele>1893.97</ele>
        <time>2015-04-06T07:29:49Z</time>
      </trkpt>
      <trkpt lat="45.69485" lon="6.26239">
        <ele>1867.22</ele>
        <time>2015-04-06T07:31:05Z</time>
      </trkpt>
      <trkpt lat="45.69506" lon="6.26237">
        <ele>1866.65</ele>
        <time>2015-04-06T07:31:11Z</time>
      </trkpt>
      <trkpt lat="45.69524" lon="6.26245">
        <ele>1856.62</ele>
        <time>2015-04-06T07:31:37Z</time>
      </trkpt>
      <trkpt lat="45.69539" lon="6.2623">
        <ele>1843.92</ele>
        <time>2015-04-06T07:31:45Z</time>
      </trkpt>
      <trkpt lat="45.69555" lon="6.26211">
        <ele>1837.99</ele>
        <time>2015-04-06T07:31:54Z</time>
      </trkpt>
      <trkpt lat="45.69572" lon="6.26197">
        <ele>1832.73</ele>
        <time>2015-04-06T07:32:01Z</time>
      </trkpt>
      <trkpt lat="45.69584" lon="6.26176">
        <ele>1807.76</ele>
        <time>2015-04-06T07:32:12Z</time>
      </trkpt>
      <trkpt lat="45.69598" lon="6.26159">
        <ele>1783.64</ele>
        <time>2015-04-06T07:33:26Z</time>
      </trkpt>
      <trkpt lat="45.69618" lon="6.26153">
        <ele>1775.47</ele>
        <time>2015-04-06T07:34:10Z</time>
      </trkpt>
      <trkpt lat="45.6963" lon="6.26133">
        <ele>1760.67</ele>
        <time>2015-04-06T07:34:19Z</time>
      </trkpt>
      <trkpt lat="45.69646" lon="6.2612">
        <ele>1752.04</ele>
        <time>2015-04-06T07:34:53Z</time>
      </trkpt>
      <trkpt lat="45.69661" lon="6.26105">
        <ele>1730.6</ele>
        <time>2015-04-06T07:35:21Z</time>
      </trkpt>
      <trkpt lat="45.69655" lon="6.26081">
        <ele>1722.33</ele>
        <time>2015-04-06T07:35:58Z</time>
      </trkpt>
      <trkpt lat="45.69638" lon="6.26066">
        <ele>1720.42</ele>
        <time>2015-04-06T07:36:04Z</time>
      </trkpt>
      <trkpt lat="45.69628" lon="6.26044">
        <ele>1713.86</ele>
        <time>2015-04-06T07:36:19Z</time>
      </trkpt>
      <trkpt lat="45.69638" lon="6.26022">
        <ele>1700.81</ele>
        <time>2015-04-06T07:36:26Z</time>
      </trkpt>
      <trkpt lat="45.69654" lon="6.26004">
        <ele>1682.55</ele>
        <time>2015-04-06T07:36:32Z</time>
      </trkpt>
      <trkpt lat="45.69662" lon="6.25976">
        <ele>1671.63</ele>
        <time>2015-04-06T07:36:38Z</time>
      </trkpt>
      <trkpt lat="45.69678" lon="6.25957">
        <ele>1666.41</ele>
        <time>2015-04-06T07:36:43Z</time>
      </trkpt>
      <trkpt lat="45.69692" lon="6.25935">
        <ele>1656.09</ele>
        <time>2015-04-06T07:36:48Z</time>
      </trkpt>
      <trkpt lat="45.69698" lon="6.25906">
        <ele>1645.87</ele>
        <time>2015-04-06T07:36:54Z</time>
      </trkpt>
      <trkpt lat="45.69709" lon="6.25881">
        <ele>1639.57</ele>
        <time>2015-04-06T07:36:59Z</time>
      </trkpt>
      <trkpt lat="45.69706" lon="6.25854">
        <ele>1632.53</ele>
        <time>2015-04-06T07:37:23Z</time>
      </trkpt>
      <trkpt lat="45.69706" lon="6.25824">
        <ele>1627.53</ele>
        <time>2015-04-06T07:37:27Z</time>
      </trkpt>
      <trkpt lat="45.69708" lon="6.25796">
        <ele>1624.16</ele>
        <time>2015-04-06T07:37:30Z</time>
      </trkpt>
      <trkpt lat="45.69709" lon="6.25766">
        <ele>1616.77</ele>
        <time>2015-04-06T07:37:35Z</time>
      </trkpt>
      <trkpt lat="45.69701" lon="6.25742">
        <ele>1603.97</ele>
        <time>2015-04-06T07:48:11Z</time>
      </trkpt>
      <trkpt lat="45.69685" lon="6.25729">
        <ele>1603.53</ele>
        <time>2015-04-06T07:55:03Z</time>
      </trkpt>
      <trkpt lat="45.6967" lon="6.25715">
        <ele>1606.44</ele>
        <time>2015-04-06T07:58:24Z</time>
      </trkpt>
      <trkpt lat="45.69659" lon="6.25695">
        <ele>1607.59</ele>
        <time>2015-04-06T07:58:48Z</time>
      </trkpt>
      <trkpt lat="45.69644" lon="6.25677">
        <ele>1617.29</ele>
        <time>2015-04-06T08:00:47Z</time>
      </trkpt>
      <trkpt lat="45.69629" lon="6.25661">
        <ele>1613.66</ele>
        <time>2015-04-06T08:01:08Z</time>
      </trkpt>
      <trkpt lat="45.6962" lon="6.25638">
        <ele>1610.54</ele>
        <time>2015-04-06T08:01:32Z</time>
      </trkpt>
      <trkpt lat="45.69611" lon="6.25615">
        <ele>1607.82</ele>
        <time>2015-04-06T08:02:04Z</time>
      </trkpt>
      <trkpt lat="45.69598" lon="6.25595">
        <ele>1610.93</ele>
        <time>2015-04-06T08:02:24Z</time>
      </trkpt>
      <trkpt lat="45.69586" lon="6.25576">
        <ele>1613.52</ele>
        <time>2015-04-06T08:02:46Z</time>
      </trkpt>
      <trkpt lat="45.69583" lon="6.25548">
        <ele>1615.22</ele>
        <time>2015-04-06T08:03:05Z</time>
      </trkpt>
      <trkpt lat="45.69587" lon="6.25523">
        <ele>1620.39</ele>
        <time>2015-04-06T08:03:25Z</time>
      </trkpt>
      <trkpt lat="45.69569" lon="6.2553">
        <ele>1623.53</ele>
        <time>2015-04-06T08:07:10Z</time>
      </trkpt>
      <trkpt lat="45.69551" lon="6.25532">
        <ele>1629.52</ele>
        <time>2015-04-06T08:07:38Z</time>
      </trkpt>
      <trkpt lat="45.69533" lon="6.25532">
        <ele>1636.53</ele>
        <time>2015-04-06T08:08:06Z</time>
      </trkpt>
      <trkpt lat="45.69515" lon="6.25539">
        <ele>1642.14</ele>
        <time>2015-04-06T08:08:54Z</time>
      </trkpt>
      <trkpt lat="45.69499" lon="6.2555">
        <ele>1645.06</ele>
        <time>2015-04-06T08:09:23Z</time>
      </trkpt>
      <trkpt lat="45.69481" lon="6.25546">
        <ele>1651.39</ele>
        <time>2015-04-06T08:10:05Z</time>
      </trkpt>
      <trkpt lat="45.69481" lon="6.25519">
        <ele>1658.01</ele>
        <time>2015-04-06T08:10:35Z</time>
      </trkpt>
      <trkpt lat="45.69472" lon="6.25497">
        <ele>1664.45</ele>
        <time>2015-04-06T08:11:27Z</time>
      </trkpt>
      <trkpt lat="45.69455" lon="6.25486">
        <ele>1664.53</ele>
        <time>2015-04-06T08:11:51Z</time>
      </trkpt>
      <trkpt lat="45.69439" lon="6.25473">
        <ele>1665.52</ele>
        <time>2015-04-06T08:12:11Z</time>
      </trkpt>
      <trkpt lat="45.69421" lon="6.25472">
        <ele>1669.28</ele>
        <time>2015-04-06T08:12:39Z</time>
      </trkpt>
      <trkpt lat="45.69405" lon="6.2546">
        <ele>1679.26</ele>
        <time>2015-04-06T08:13:12Z</time>
      </trkpt>
      <trkpt lat="45.69389" lon="6.25447">
        <ele>1691.25</ele>
        <time>2015-04-06T08:14:07Z</time>
      </trkpt>
      <trkpt lat="45.69379" lon="6.25425">
        <ele>1692.07</ele>
        <time>2015-04-06T08:14:40Z</time>
      </trkpt>
      <trkpt lat="45.69378" lon="6.25399">
        <ele>1695.03</ele>
        <time>2015-04-06T08:15:04Z</time>
      </trkpt>
      <trkpt lat="45.69383" lon="6.25373">
        <ele>1701.51</ele>
        <time>2015-04-06T08:15:31Z</time>
      </trkpt>
      <trkpt lat="45.69392" lon="6.2535">
        <ele>1705.52</ele>
        <time>2015-04-06T08:15:57Z</time>
      </trkpt>
      <trkpt lat="45.69402" lon="6.25328">
        <ele>1710.88</ele>
        <time>2015-04-06T08:16:22Z</time>
      </trkpt>
      <trkpt lat="45.69412" lon="6.25306">
        <ele>1714.65</ele>
        <time>2015-04-06T08:16:48Z</time>
      </trkpt>
      <trkpt lat="45.69423" lon="6.25284">
        <ele>1713.53</ele>
        <time>2015-04-06T08:17:09Z</time>
      </trkpt>
      <trkpt lat="45.69406" lon="6.25296">
        <ele>1710.56</ele>
        <time>2015-04-06T08:21:40Z</time>
      </trkpt>
      <trkpt lat="45.6939" lon="6.25309">
        <ele>1712.43</ele>
        <time>2015-04-06T08:21:58Z</time>
      </trkpt>
      <trkpt lat="45.69374" lon="6.2532">
        <ele>1713.84</ele>
        <time>2015-04-06T08:22:27Z</time>
      </trkpt>
      <trkpt lat="45.69356" lon="6.25326">
        <ele>1712.28</ele>
        <time>2015-04-06T08:23:14Z</time>
      </trkpt>
      <trkpt lat="45.69337" lon="6.25333">
        <ele>1710.64</ele>
        <time>2015-04-06T08:23:31Z</time>
      </trkpt>
      <trkpt lat="45.69319" lon="6.25338">
        <ele>1710.72</ele>
        <time>2015-04-06T08:23:48Z</time>
      </trkpt>
      <trkpt lat="45.693" lon="6.25344">
        <ele>1709.97</ele>
        <time>2015-04-06T08:24:07Z</time>
      </trkpt>
      <trkpt lat="45.69282" lon="6.25347">
        <ele>1709.69</ele>
        <time>2015-04-06T08:24:25Z</time>
      </trkpt>
      <trkpt lat="45.69263" lon="6.25346">
        <ele>1714.45</ele>
        <time>2015-04-06T08:24:46Z</time>
      </trkpt>
      <trkpt lat="45.69246" lon="6.2535">
        <ele>1715.96</ele>
        <time>2015-04-06T08:25:04Z</time>
      </trkpt>
      <trkpt lat="45.69228" lon="6.25357">
        <ele>1724.11</ele>
        <time>2015-04-06T08:25:30Z</time>
      </trkpt>
      <trkpt lat="45.69212" lon="6.25371">
        <ele>1728.18</ele>
        <time>2015-04-06T08:25:58Z</time>
      </trkpt>
      <trkpt lat="45.69197" lon="6.25385">
        <ele>1733.54</ele>
        <time>2015-04-06T08:26:30Z</time>
      </trkpt>
      <trkpt lat="45.69182" lon="6.25399">
        <ele>1736.03</ele>
        <time>2015-04-06T08:26:58Z</time>
      </trkpt>
      <trkpt lat="45.69165" lon="6.25412">
        <ele>1729.44</ele>
        <time>2015-04-06T08:27:24Z</time>
      </trkpt>
      <trkpt lat="45.69148" lon="6.25422">
        <ele>1739.96</ele>
        <time>2015-04-06T08:28:10Z</time>
      </trkpt>
      <trkpt lat="45.69131" lon="6.25416">
        <ele>1737.58</ele>
        <time>2015-04-06T08:28:31Z</time>
      </trkpt>
      <trkpt lat="45.69112" lon="6.25412">
        <ele>1736.55</ele>
        <time>2015-04-06T08:28:53Z</time>
      </trkpt>
      <trkpt lat="45.69095" lon="6.25406">
        <ele>1737.16</ele>
        <time>2015-04-06T08:29:11Z</time>
      </trkpt>
      <trkpt lat="45.69076" lon="6.25403">
        <ele>1730.43</ele>
        <time>2015-04-06T08:29:30Z</time>
      </trkpt>
      <trkpt lat="45.69058" lon="6.25402">
        <ele>1732.19</ele>
        <time>2015-04-06T08:29:47Z</time>
      </trkpt>
      <trkpt lat="45.6904" lon="6.25399">
        <ele>1729.8</ele>
        <time>2015-04-06T08:30:06Z</time>
      </trkpt>
      <trkpt lat="45.69022" lon="6.254">
        <ele>1730.02</ele>
        <time>2015-04-06T08:30:22Z</time>
      </trkpt>
      <trkpt lat="45.69003" lon="6.25394">
        <ele>1737.17</ele>
        <time>2015-04-06T08:30:48Z</time>
      </trkpt>
      <trkpt lat="45.68985" lon="6.25392">
        <ele>1735.05</ele>
        <time>2015-04-06T08:31:06Z</time>
      </trkpt>
      <trkpt lat="45.68966" lon="6.25391">
        <ele>1735.86</ele>
        <time>2015-04-06T08:31:27Z</time>
      </trkpt>
      <trkpt lat="45.68947" lon="6.25388">
        <ele>1735.93</ele>
        <time>2015-04-06T08:31:44Z</time>
      </trkpt>
      <trkpt lat="45.68929" lon="6.25394">
        <ele>1741.28</ele>
        <time>2015-04-06T08:32:05Z</time>
      </trkpt>
      <trkpt lat="45.68913" lon="6.25383">
        <ele>1744.92</ele>
        <time>2015-04-06T08:32:24Z</time>
      </trkpt>
      <trkpt lat="45.68899" lon="6.25366">
        <ele>1745.94</ele>
        <time>2015-04-06T08:32:46Z</time>
      </trkpt>
      <trkpt lat="45.68885" lon="6.25348">
        <ele>1745.31</ele>
        <time>2015-04-06T08:33:04Z</time>
      </trkpt>
      <trkpt lat="45.68879" lon="6.25323">
        <ele>1754.95</ele>
        <time>2015-04-06T08:33:27Z</time>
      </trkpt>
      <trkpt lat="45.68868" lon="6.25302">
        <ele>1759.54</ele>
        <time>2015-04-06T08:33:53Z</time>
      </trkpt>
      <trkpt lat="45.68855" lon="6.25283">
        <ele>1758.6</ele>
        <time>2015-04-06T08:34:14Z</time>
      </trkpt>
      <trkpt lat="45.68839" lon="6.25268">
        <ele>1757.91</ele>
        <time>2015-04-06T08:34:35Z</time>
      </trkpt>
      <trkpt lat="45.68823" lon="6.25256">
        <ele>1756.92</ele>
        <time>2015-04-06T08:34:54Z</time>
      </trkpt>
      <trkpt lat="45.68805" lon="6.25252">
        <ele>1764.49</ele>
        <time>2015-04-06T08:35:31Z</time>
      </trkpt>
      <trkpt lat="45.68787" lon="6.25246">
        <ele>1765.58</ele>
        <time>2015-04-06T08:35:54Z</time>
      </trkpt>
      <trkpt lat="45.68768" lon="6.2524">
        <ele>1773</ele>
        <time>2015-04-06T08:36:22Z</time>
      </trkpt>
      <trkpt lat="45.68751" lon="6.25234">
        <ele>1773.53</ele>
        <time>2015-04-06T08:36:45Z</time>
      </trkpt>
      <trkpt lat="45.68734" lon="6.25222">
        <ele>1776.83</ele>
        <time>2015-04-06T08:37:09Z</time>
      </trkpt>
      <trkpt lat="45.68717" lon="6.25213">
        <ele>1781.36</ele>
        <time>2015-04-06T08:37:36Z</time>
      </trkpt>
      <trkpt lat="45.687" lon="6.25206">
        <ele>1786.22</ele>
        <time>2015-04-06T08:38:04Z</time>
      </trkpt>
      <trkpt lat="45.68682" lon="6.25201">
        <ele>1788.04</ele>
        <time>2015-04-06T08:38:32Z</time>
      </trkpt>
      <trkpt lat="45.68665" lon="6.2519">
        <ele>1791.5</ele>
        <time>2015-04-06T08:38:59Z</time>
      </trkpt>
      <trkpt lat="45.68648" lon="6.2518">
        <ele>1797.19</ele>
        <time>2015-04-06T08:39:25Z</time>
      </trkpt>
      <trkpt lat="45.68631" lon="6.2517">
        <ele>1797.53</ele>
        <time>2015-04-06T08:39:50Z</time>
      </trkpt>
      <trkpt lat="45.68614" lon="6.2516">
        <ele>1801.4</ele>
        <time>2015-04-06T08:40:10Z</time>
      </trkpt>
      <trkpt lat="45.68596" lon="6.25154">
        <ele>1800.56</ele>
        <time>2015-04-06T08:40:34Z</time>
      </trkpt>
      <trkpt lat="45.68578" lon="6.25148">
        <ele>1800.03</ele>
        <time>2015-04-06T08:40:57Z</time>
      </trkpt>
      <trkpt lat="45.68561" lon="6.2514">
        <ele>1798.84</ele>
        <time>2015-04-06T08:41:24Z</time>
      </trkpt>
      <trkpt lat="45.68542" lon="6.2514">
        <ele>1805.01</ele>
        <time>2015-04-06T08:41:53Z</time>
      </trkpt>
      <trkpt lat="45.68524" lon="6.25136">
        <ele>1810.05</ele>
        <time>2015-04-06T08:42:24Z</time>
      </trkpt>
      <trkpt lat="45.68508" lon="6.25123">
        <ele>1811.27</ele>
        <time>2015-04-06T08:43:46Z</time>
      </trkpt>
      <trkpt lat="45.68499" lon="6.25101">
        <ele>1821.4</ele>
        <time>2015-04-06T08:44:16Z</time>
      </trkpt>
      <trkpt lat="45.68492" lon="6.25076">
        <ele>1834.72</ele>
        <time>2015-04-06T08:44:54Z</time>
      </trkpt>
      <trkpt lat="45.68477" lon="6.25062">
        <ele>1831.76</ele>
        <time>2015-04-06T08:45:33Z</time>
      </trkpt>
      <trkpt lat="45.68469" lon="6.25085">
        <ele>1836.16</ele>
        <time>2015-04-06T08:46:18Z</time>
      </trkpt>
      <trkpt lat="45.68461" lon="6.25109">
        <ele>1843.11</ele>
        <time>2015-04-06T08:46:52Z</time>
      </trkpt>
      <trkpt lat="45.68447" lon="6.25091">
        <ele>1857.06</ele>
        <time>2015-04-06T08:47:58Z</time>
      </trkpt>
      <trkpt lat="45.68436" lon="6.25072">
        <ele>1855.41</ele>
        <time>2015-04-06T08:48:53Z</time>
      </trkpt>
      <trkpt lat="45.68424" lon="6.25093">
        <ele>1873.01</ele>
        <time>2015-04-06T08:50:06Z</time>
      </trkpt>
      <trkpt lat="45.68406" lon="6.25094">
        <ele>1878.09</ele>
        <time>2015-04-06T08:51:25Z</time>
      </trkpt>
      <trkpt lat="45.68403" lon="6.2512">
        <ele>1890.28</ele>
        <time>2015-04-06T08:52:09Z</time>
      </trkpt>
      <trkpt lat="45.68385" lon="6.25118">
        <ele>1906.22</ele>
        <time>2015-04-06T08:54:27Z</time>
      </trkpt>
      <trkpt lat="45.68368" lon="6.25126">
        <ele>1914.83</ele>
        <time>2015-04-06T08:56:39Z</time>
      </trkpt>
      <trkpt lat="45.68361" lon="6.25102">
        <ele>1928.41</ele>
        <time>2015-04-06T09:03:22Z</time>
      </trkpt>
      <trkpt lat="45.68355" lon="6.25078">
        <ele>1935.34</ele>
        <time>2015-04-06T09:03:54Z</time>
      </trkpt>
      <trkpt lat="45.68354" lon="6.25052">
        <ele>1939.01</ele>
        <time>2015-04-06T09:04:45Z</time>
      </trkpt>
      <trkpt lat="45.68346" lon="6.25028">
        <ele>1940.56</ele>
        <time>2015-04-06T09:05:33Z</time>
      </trkpt>
      <trkpt lat="45.68343" lon="6.25003">
        <ele>1944.28</ele>
        <time>2015-04-06T09:06:16Z</time>
      </trkpt>
      <trkpt lat="45.68335" lon="6.25026">
        <ele>1950.56</ele>
        <time>2015-04-06T09:06:58Z</time>
      </trkpt>
      <trkpt lat="45.6833" lon="6.25051">
        <ele>1957.87</ele>
        <time>2015-04-06T09:07:30Z</time>
      </trkpt>
      <trkpt lat="45.68329" lon="6.25078">
        <ele>1958.45</ele>
        <time>2015-04-06T09:07:55Z</time>
      </trkpt>
      <trkpt lat="45.68328" lon="6.25104">
        <ele>1959.27</ele>
        <time>2015-04-06T09:08:25Z</time>
      </trkpt>
      <trkpt lat="45.68329" lon="6.2513">
        <ele>1960.04</ele>
        <time>2015-04-06T09:08:55Z</time>
      </trkpt>
      <trkpt lat="45.68327" lon="6.25156">
        <ele>1962.85</ele>
        <time>2015-04-06T09:09:31Z</time>
      </trkpt>
      <trkpt lat="45.68327" lon="6.25182">
        <ele>1972.11</ele>
        <time>2015-04-06T09:13:03Z</time>
      </trkpt>
      <trkpt lat="45.68328" lon="6.25208">
        <ele>1973.53</ele>
        <time>2015-04-06T09:13:46Z</time>
      </trkpt>
      <trkpt lat="45.68327" lon="6.25235">
        <ele>1973.55</ele>
        <time>2015-04-06T09:14:03Z</time>
      </trkpt>
      <trkpt lat="45.68332" lon="6.2526">
        <ele>1975.03</ele>
        <time>2015-04-06T09:14:26Z</time>
      </trkpt>
      <trkpt lat="45.68331" lon="6.25286">
        <ele>1979.52</ele>
        <time>2015-04-06T09:15:01Z</time>
      </trkpt>
      <trkpt lat="45.68333" lon="6.25312">
        <ele>1981.03</ele>
        <time>2015-04-06T09:15:25Z</time>
      </trkpt>
      <trkpt lat="45.68334" lon="6.25338">
        <ele>1986.47</ele>
        <time>2015-04-06T09:16:16Z</time>
      </trkpt>
      <trkpt lat="45.68337" lon="6.25363">
        <ele>1997.92</ele>
        <time>2015-04-06T09:17:53Z</time>
      </trkpt>
      <trkpt lat="45.68333" lon="6.25389">
        <ele>2004.47</ele>
        <time>2015-04-06T09:18:27Z</time>
      </trkpt>
      <trkpt lat="45.68335" lon="6.25415">
        <ele>2007.53</ele>
        <time>2015-04-06T09:18:56Z</time>
      </trkpt>
      <trkpt lat="45.68344" lon="6.25438">
        <ele>2009.65</ele>
        <time>2015-04-06T09:19:37Z</time>
      </trkpt>
      <trkpt lat="45.68354" lon="6.2546">
        <ele>2013.75</ele>
        <time>2015-04-06T09:20:13Z</time>
      </trkpt>
      <trkpt lat="45.68354" lon="6.25486">
        <ele>2018.79</ele>
        <time>2015-04-06T09:20:49Z</time>
      </trkpt>
      <trkpt lat="45.68361" lon="6.2551">
        <ele>2023.53</ele>
        <time>2015-04-06T09:28:02Z</time>
      </trkpt>
      <trkpt lat="45.68367" lon="6.25535">
        <ele>2033.03</ele>
        <time>2015-04-06T09:35:10Z</time>
      </trkpt>
      <trkpt lat="45.68367" lon="6.2556">
        <ele>2052.26</ele>
        <time>2015-04-06T09:38:10Z</time>
      </trkpt>
      <trkpt lat="45.68372" lon="6.25586">
        <ele>2059.91</ele>
        <time>2015-04-06T09:40:06Z</time>
      </trkpt>
      <trkpt lat="45.68377" lon="6.25611">
        <ele>2073.39</ele>
        <time>2015-04-06T09:41:53Z</time>
      </trkpt>
      <trkpt lat="45.68375" lon="6.25637">
        <ele>2080.3</ele>
        <time>2015-04-06T09:42:52Z</time>
      </trkpt>
      <trkpt lat="45.68374" lon="6.25663">
        <ele>2090.9</ele>
        <time>2015-04-06T09:44:21Z</time>
      </trkpt>
      <trkpt lat="45.68374" lon="6.25689">
        <ele>2102.5</ele>
        <time>2015-04-06T09:46:21Z</time>
      </trkpt>
      <trkpt lat="45.68376" lon="6.25715">
        <ele>2113.53</ele>
        <time>2015-04-06T09:48:36Z</time>
      </trkpt>
      <trkpt lat="45.6838" lon="6.2574">
        <ele>2131.47</ele>
        <time>2015-04-06T09:50:19Z</time>
      </trkpt>
      <trkpt lat="45.68387" lon="6.25765">
        <ele>2147.46</ele>
        <time>2015-04-06T09:52:13Z</time>
      </trkpt>
      <trkpt lat="45.68394" lon="6.25788">
        <ele>2158.5</ele>
        <time>2015-04-06T09:53:43Z</time>
      </trkpt>
      <trkpt lat="45.68392" lon="6.25814">
        <ele>2166.4</ele>
        <time>2015-04-06T09:55:17Z</time>
      </trkpt>
      <trkpt lat="45.68404" lon="6.25834">
        <ele>2165.47</ele>
        <time>2015-04-06T10:06:34Z</time>
      </trkpt>
      <trkpt lat="45.68423" lon="6.25834">
        <ele>2158.4</ele>
        <time>2015-04-06T10:06:49Z</time>
      </trkpt>
      <trkpt lat="45.68438" lon="6.25848">
        <ele>2154.15</ele>
        <time>2015-04-06T10:08:07Z</time>
      </trkpt>
      <trkpt lat="45.68449" lon="6.25828">
        <ele>2151.09</ele>
        <time>2015-04-06T10:08:13Z</time>
      </trkpt>
      <trkpt lat="45.68469" lon="6.25824">
        <ele>2136.93</ele>
        <time>2015-04-06T10:08:21Z</time>
      </trkpt>
      <trkpt lat="45.68487" lon="6.25819">
        <ele>2122.59</ele>
        <time>2015-04-06T10:08:28Z</time>
      </trkpt>
      <trkpt lat="45.68506" lon="6.25815">
        <ele>2108.53</ele>
        <time>2015-04-06T10:08:34Z</time>
      </trkpt>
      <trkpt lat="45.68523" lon="6.25832">
        <ele>2087.81</ele>
        <time>2015-04-06T10:08:43Z</time>
      </trkpt>
      <trkpt lat="45.68541" lon="6.25827">
        <ele>2051.39</ele>
        <time>2015-04-06T10:10:25Z</time>
      </trkpt>
      <trkpt lat="45.68553" lon="6.25801">
        <ele>2041.96</ele>
        <time>2015-04-06T10:10:32Z</time>
      </trkpt>
      <trkpt lat="45.68566" lon="6.25782">
        <ele>2032.2</ele>
        <time>2015-04-06T10:10:37Z</time>
      </trkpt>
      <trkpt lat="45.68585" lon="6.2577">
        <ele>2022.71</ele>
        <time>2015-04-06T10:10:42Z</time>
      </trkpt>
      <trkpt lat="45.68572" lon="6.25749">
        <ele>2016.44</ele>
        <time>2015-04-06T10:10:48Z</time>
      </trkpt>
      <trkpt lat="45.68577" lon="6.25721">
        <ele>1990.83</ele>
        <time>2015-04-06T10:11:23Z</time>
      </trkpt>
      <trkpt lat="45.6859" lon="6.257">
        <ele>1976.63</ele>
        <time>2015-04-06T10:11:29Z</time>
      </trkpt>
      <trkpt lat="45.68598" lon="6.25676">
        <ele>1963.19</ele>
        <time>2015-04-06T10:11:35Z</time>
      </trkpt>
      <trkpt lat="45.68606" lon="6.25649">
        <ele>1946.72</ele>
        <time>2015-04-06T10:11:42Z</time>
      </trkpt>
      <trkpt lat="45.68618" lon="6.25625">
        <ele>1933.96</ele>
        <time>2015-04-06T10:11:48Z</time>
      </trkpt>
      <trkpt lat="45.68632" lon="6.256">
        <ele>1923.54</ele>
        <time>2015-04-06T10:11:53Z</time>
      </trkpt>
      <trkpt lat="45.68633" lon="6.25575">
        <ele>1911.85</ele>
        <time>2015-04-06T10:13:06Z</time>
      </trkpt>
      <trkpt lat="45.68646" lon="6.25551">
        <ele>1899.32</ele>
        <time>2015-04-06T10:13:12Z</time>
      </trkpt>
      <trkpt lat="45.68654" lon="6.25528">
        <ele>1887.62</ele>
        <time>2015-04-06T10:13:17Z</time>
      </trkpt>
      <trkpt lat="45.6866" lon="6.25502">
        <ele>1874.05</ele>
        <time>2015-04-06T10:13:23Z</time>
      </trkpt>
      <trkpt lat="45.6867" lon="6.25478">
        <ele>1860.27</ele>
        <time>2015-04-06T10:13:29Z</time>
      </trkpt>
      <trkpt lat="45.68691" lon="6.2548">
        <ele>1853.58</ele>
        <time>2015-04-06T10:13:46Z</time>
      </trkpt>
      <trkpt lat="45.68702" lon="6.25457">
        <ele>1842.45</ele>
        <time>2015-04-06T10:13:52Z</time>
      </trkpt>
      <trkpt lat="45.68715" lon="6.2543">
        <ele>1831.59</ele>
        <time>2015-04-06T10:13:57Z</time>
      </trkpt>
      <trkpt lat="45.68721" lon="6.25404">
        <ele>1823.19</ele>
        <time>2015-04-06T10:14:02Z</time>
      </trkpt>
      <trkpt lat="45.68729" lon="6.25378">
        <ele>1814.83</ele>
        <time>2015-04-06T10:14:07Z</time>
      </trkpt>
      <trkpt lat="45.6874" lon="6.25353">
        <ele>1806.29</ele>
        <time>2015-04-06T10:14:12Z</time>
      </trkpt>
      <trkpt lat="45.68752" lon="6.25329">
        <ele>1797.77</ele>
        <time>2015-04-06T10:14:17Z</time>
      </trkpt>
      <trkpt lat="45.68764" lon="6.25306">
        <ele>1789.76</ele>
        <time>2015-04-06T10:14:22Z</time>
      </trkpt>
      <trkpt lat="45.68776" lon="6.25282">
        <ele>1784.04</ele>
        <time>2015-04-06T10:14:27Z</time>
      </trkpt>
      <trkpt lat="45.6879" lon="6.25265">
        <ele>1778.13</ele>
        <time>2015-04-06T10:14:54Z</time>
      </trkpt>
      <trkpt lat="45.68803" lon="6.25246">
        <ele>1773.85</ele>
        <time>2015-04-06T10:15:00Z</time>
      </trkpt>
      <trkpt lat="45.68827" lon="6.25254">
        <ele>1770.03</ele>
        <time>2015-04-06T10:17:23Z</time>
      </trkpt>
      <trkpt lat="45.68844" lon="6.25268">
        <ele>1768.07</ele>
        <time>2015-04-06T10:17:29Z</time>
      </trkpt>
      <trkpt lat="45.68857" lon="6.25286">
        <ele>1765.61</ele>
        <time>2015-04-06T10:17:37Z</time>
      </trkpt>
      <trkpt lat="45.68874" lon="6.25306">
        <ele>1760.3</ele>
        <time>2015-04-06T10:17:43Z</time>
      </trkpt>
      <trkpt lat="45.68882" lon="6.25341">
        <ele>1757.27</ele>
        <time>2015-04-06T10:17:47Z</time>
      </trkpt>
      <trkpt lat="45.68896" lon="6.2536">
        <ele>1755.87</ele>
        <time>2015-04-06T10:17:50Z</time>
      </trkpt>
      <trkpt lat="45.68912" lon="6.25372">
        <ele>1753.52</ele>
        <time>2015-04-06T10:17:57Z</time>
      </trkpt>
      <trkpt lat="45.68925" lon="6.2539">
        <ele>1756.04</ele>
        <time>2015-04-06T10:18:24Z</time>
      </trkpt>
      <trkpt lat="45.68945" lon="6.25382">
        <ele>1754.75</ele>
        <time>2015-04-06T10:18:32Z</time>
      </trkpt>
      <trkpt lat="45.68963" lon="6.25377">
        <ele>1755.79</ele>
        <time>2015-04-06T10:18:40Z</time>
      </trkpt>
      <trkpt lat="45.68982" lon="6.25384">
        <ele>1755.46</ele>
        <time>2015-04-06T10:20:31Z</time>
      </trkpt>
      <trkpt lat="45.69" lon="6.2539">
        <ele>1756.27</ele>
        <time>2015-04-06T10:20:42Z</time>
      </trkpt>
      <trkpt lat="45.69018" lon="6.25394">
        <ele>1755.55</ele>
        <time>2015-04-06T10:20:52Z</time>
      </trkpt>
      <trkpt lat="45.69037" lon="6.25395">
        <ele>1755.53</ele>
        <time>2015-04-06T10:20:59Z</time>
      </trkpt>
      <trkpt lat="45.69056" lon="6.25398">
        <ele>1757.47</ele>
        <time>2015-04-06T10:21:15Z</time>
      </trkpt>
      <trkpt lat="45.69075" lon="6.25401">
        <ele>1757.29</ele>
        <time>2015-04-06T10:21:24Z</time>
      </trkpt>
      <trkpt lat="45.69094" lon="6.25401">
        <ele>1756.53</ele>
        <time>2015-04-06T10:21:33Z</time>
      </trkpt>
      <trkpt lat="45.69112" lon="6.25405">
        <ele>1756.09</ele>
        <time>2015-04-06T10:21:46Z</time>
      </trkpt>
      <trkpt lat="45.69132" lon="6.2541">
        <ele>1754.06</ele>
        <time>2015-04-06T10:21:56Z</time>
      </trkpt>
      <trkpt lat="45.69152" lon="6.25408">
        <ele>1751.36</ele>
        <time>2015-04-06T10:22:01Z</time>
      </trkpt>
      <trkpt lat="45.6917" lon="6.25402">
        <ele>1748.51</ele>
        <time>2015-04-06T10:22:04Z</time>
      </trkpt>
      <trkpt lat="45.69191" lon="6.25391">
        <ele>1745.28</ele>
        <time>2015-04-06T10:22:07Z</time>
      </trkpt>
      <trkpt lat="45.69211" lon="6.25374">
        <ele>1741.62</ele>
        <time>2015-04-06T10:22:10Z</time>
      </trkpt>
      <trkpt lat="45.69233" lon="6.25358">
        <ele>1737.79</ele>
        <time>2015-04-06T10:22:13Z</time>
      </trkpt>
      <trkpt lat="45.69256" lon="6.25349">
        <ele>1734.56</ele>
        <time>2015-04-06T10:22:16Z</time>
      </trkpt>
      <trkpt lat="45.69278" lon="6.25346">
        <ele>1731.16</ele>
        <time>2015-04-06T10:22:19Z</time>
      </trkpt>
      <trkpt lat="45.69296" lon="6.25346">
        <ele>1729.23</ele>
        <time>2015-04-06T10:22:22Z</time>
      </trkpt>
      <trkpt lat="45.69319" lon="6.25343">
        <ele>1726.76</ele>
        <time>2015-04-06T10:22:26Z</time>
      </trkpt>
      <trkpt lat="45.69339" lon="6.25336">
        <ele>1724.61</ele>
        <time>2015-04-06T10:22:30Z</time>
      </trkpt>
      <trkpt lat="45.69361" lon="6.25328">
        <ele>1721.33</ele>
        <time>2015-04-06T10:22:36Z</time>
      </trkpt>
      <trkpt lat="45.69378" lon="6.25318">
        <ele>1718.84</ele>
        <time>2015-04-06T10:22:41Z</time>
      </trkpt>
      <trkpt lat="45.69394" lon="6.25307">
        <ele>1717.6</ele>
        <time>2015-04-06T10:22:47Z</time>
      </trkpt>
      <trkpt lat="45.69411" lon="6.25295">
        <ele>1717.52</ele>
        <time>2015-04-06T10:22:56Z</time>
      </trkpt>
      <trkpt lat="45.69412" lon="6.25322">
        <ele>1711.03</ele>
        <time>2015-04-06T10:52:03Z</time>
      </trkpt>
      <trkpt lat="45.69399" lon="6.25349">
        <ele>1710.3</ele>
        <time>2015-04-06T10:52:08Z</time>
      </trkpt>
      <trkpt lat="45.69391" lon="6.25375">
        <ele>1706.63</ele>
        <time>2015-04-06T10:52:11Z</time>
      </trkpt>
      <trkpt lat="45.69386" lon="6.25407">
        <ele>1704.92</ele>
        <time>2015-04-06T10:52:14Z</time>
      </trkpt>
      <trkpt lat="45.69394" lon="6.25433">
        <ele>1703.43</ele>
        <time>2015-04-06T10:52:18Z</time>
      </trkpt>
      <trkpt lat="45.69397" lon="6.25463">
        <ele>1700.28</ele>
        <time>2015-04-06T10:52:24Z</time>
      </trkpt>
      <trkpt lat="45.69406" lon="6.25491">
        <ele>1696.08</ele>
        <time>2015-04-06T10:52:28Z</time>
      </trkpt>
      <trkpt lat="45.69415" lon="6.25515">
        <ele>1693.75</ele>
        <time>2015-04-06T10:52:32Z</time>
      </trkpt>
      <trkpt lat="45.69427" lon="6.25535">
        <ele>1691.42</ele>
        <time>2015-04-06T10:52:36Z</time>
      </trkpt>
      <trkpt lat="45.69443" lon="6.25555">
        <ele>1684.97</ele>
        <time>2015-04-06T10:52:42Z</time>
      </trkpt>
      <trkpt lat="45.6945" lon="6.25579">
        <ele>1681.29</ele>
        <time>2015-04-06T10:52:47Z</time>
      </trkpt>
      <trkpt lat="45.69466" lon="6.256">
        <ele>1676.83</ele>
        <time>2015-04-06T10:52:51Z</time>
      </trkpt>
      <trkpt lat="45.6948" lon="6.25618">
        <ele>1673.86</ele>
        <time>2015-04-06T10:52:55Z</time>
      </trkpt>
      <trkpt lat="45.69479" lon="6.25643">
        <ele>1672.53</ele>
        <time>2015-04-06T10:57:02Z</time>
      </trkpt>
      <trkpt lat="45.69476" lon="6.25669">
        <ele>1675.43</ele>
        <time>2015-04-06T10:57:28Z</time>
      </trkpt>
      <trkpt lat="45.69474" lon="6.25695">
        <ele>1678.75</ele>
        <time>2015-04-06T10:57:50Z</time>
      </trkpt>
      <trkpt lat="45.69459" lon="6.2571">
        <ele>1690.18</ele>
        <time>2015-04-06T10:58:53Z</time>
      </trkpt>
      <trkpt lat="45.69449" lon="6.25731">
        <ele>1695.56</ele>
        <time>2015-04-06T10:59:56Z</time>
      </trkpt>
      <trkpt lat="45.69431" lon="6.25727">
        <ele>1701.09</ele>
        <time>2015-04-06T11:00:30Z</time>
      </trkpt>
      <trkpt lat="45.69415" lon="6.25739">
        <ele>1709.88</ele>
        <time>2015-04-06T11:01:29Z</time>
      </trkpt>
      <trkpt lat="45.69417" lon="6.25765">
        <ele>1714.19</ele>
        <time>2015-04-06T11:02:17Z</time>
      </trkpt>
      <trkpt lat="45.69419" lon="6.25791">
        <ele>1713.28</ele>
        <time>2015-04-06T11:02:38Z</time>
      </trkpt>
      <trkpt lat="45.6942" lon="6.25817">
        <ele>1722.05</ele>
        <time>2015-04-06T11:03:14Z</time>
      </trkpt>
      <trkpt lat="45.69428" lon="6.25841">
        <ele>1730.86</ele>
        <time>2015-04-06T11:04:04Z</time>
      </trkpt>
      <trkpt lat="45.69428" lon="6.25866">
        <ele>1743.14</ele>
        <time>2015-04-06T11:04:36Z</time>
      </trkpt>
      <trkpt lat="45.69409" lon="6.25867">
        <ele>1742.55</ele>
        <time>2015-04-06T11:07:13Z</time>
      </trkpt>
      <trkpt lat="45.69409" lon="6.25894">
        <ele>1738.36</ele>
        <time>2015-04-06T11:07:43Z</time>
      </trkpt>
      <trkpt lat="45.6939" lon="6.25895">
        <ele>1751.16</ele>
        <time>2015-04-06T11:08:45Z</time>
      </trkpt>
      <trkpt lat="45.69381" lon="6.25918">
        <ele>1758.46</ele>
        <time>2015-04-06T11:09:45Z</time>
      </trkpt>
      <trkpt lat="45.69383" lon="6.25944">
        <ele>1758.99</ele>
        <time>2015-04-06T11:10:17Z</time>
      </trkpt>
      <trkpt lat="45.69365" lon="6.25939">
        <ele>1774.14</ele>
        <time>2015-04-06T11:11:11Z</time>
      </trkpt>
      <trkpt lat="45.69357" lon="6.25962">
        <ele>1773.96</ele>
        <time>2015-04-06T11:12:08Z</time>
      </trkpt>
      <trkpt lat="45.6934" lon="6.25954">
        <ele>1787.49</ele>
        <time>2015-04-06T11:12:55Z</time>
      </trkpt>
      <trkpt lat="45.69333" lon="6.25978">
        <ele>1793.21</ele>
        <time>2015-04-06T11:13:35Z</time>
      </trkpt>
      <trkpt lat="45.69314" lon="6.25973">
        <ele>1805.29</ele>
        <time>2015-04-06T11:14:59Z</time>
      </trkpt>
      <trkpt lat="45.69296" lon="6.25973">
        <ele>1808.65</ele>
        <time>2015-04-06T11:15:46Z</time>
      </trkpt>
      <trkpt lat="45.69279" lon="6.25965">
        <ele>1818.02</ele>
        <time>2015-04-06T11:16:38Z</time>
      </trkpt>
      <trkpt lat="45.69265" lon="6.25983">
        <ele>1808.47</ele>
        <time>2015-04-06T11:17:43Z</time>
      </trkpt>
      <trkpt lat="45.69264" lon="6.26009">
        <ele>1814.5</ele>
        <time>2015-04-06T11:18:28Z</time>
      </trkpt>
      <trkpt lat="45.6926" lon="6.26034">
        <ele>1816.85</ele>
        <time>2015-04-06T11:19:08Z</time>
      </trkpt>
      <trkpt lat="45.69243" lon="6.26045">
        <ele>1843.15</ele>
        <time>2015-04-06T11:20:33Z</time>
      </trkpt>
      <trkpt lat="45.69226" lon="6.26037">
        <ele>1851.72</ele>
        <time>2015-04-06T11:21:28Z</time>
      </trkpt>
      <trkpt lat="45.69209" lon="6.26027">
        <ele>1855.74</ele>
        <time>2015-04-06T11:22:15Z</time>
      </trkpt>
      <trkpt lat="45.69196" lon="6.26009">
        <ele>1868.89</ele>
        <time>2015-04-06T11:23:02Z</time>
      </trkpt>
      <trkpt lat="45.69184" lon="6.2603">
        <ele>1862.76</ele>
        <time>2015-04-06T11:23:50Z</time>
      </trkpt>
      <trkpt lat="45.69183" lon="6.26056">
        <ele>1858.8</ele>
        <time>2015-04-06T11:24:43Z</time>
      </trkpt>
      <trkpt lat="45.69173" lon="6.26078">
        <ele>1865.49</ele>
        <time>2015-04-06T11:25:30Z</time>
      </trkpt>
      <trkpt lat="45.69158" lon="6.26062">
        <ele>1891.39</ele>
        <time>2015-04-06T11:26:54Z</time>
      </trkpt>
      <trkpt lat="45.69147" lon="6.26083">
        <ele>1881.09</ele>
        <time>2015-04-06T11:27:35Z</time>
      </trkpt>
      <trkpt lat="45.69151" lon="6.26109">
        <ele>1881.15</ele>
        <time>2015-04-06T11:28:22Z</time>
      </trkpt>
      <trkpt lat="45.69133" lon="6.26104">
        <ele>1912.59</ele>
        <time>2015-04-06T11:29:57Z</time>
      </trkpt>
      <trkpt lat="45.69132" lon="6.26131">
        <ele>1920.13</ele>
        <time>2015-04-06T11:31:10Z</time>
      </trkpt>
      <trkpt lat="45.69144" lon="6.2615">
        <ele>1923.29</ele>
        <time>2015-04-06T11:31:45Z</time>
      </trkpt>
      <trkpt lat="45.69148" lon="6.26176">
        <ele>1926.84</ele>
        <time>2015-04-06T11:32:28Z</time>
      </trkpt>
      <trkpt lat="45.6915" lon="6.26202">
        <ele>1936.78</ele>
        <time>2015-04-06T11:33:18Z</time>
      </trkpt>
      <trkpt lat="45.69134" lon="6.26193">
        <ele>1951.03</ele>
        <time>2015-04-06T11:34:46Z</time>
      </trkpt>
      <trkpt lat="45.69124" lon="6.26215">
        <ele>1959.87</ele>
        <time>2015-04-06T11:36:13Z</time>
      </trkpt>
      <trkpt lat="45.69135" lon="6.26236">
        <ele>1955.61</ele>
        <time>2015-04-06T11:36:50Z</time>
      </trkpt>
      <trkpt lat="45.69118" lon="6.26229">
        <ele>1979.5</ele>
        <time>2015-04-06T11:37:54Z</time>
      </trkpt>
      <trkpt lat="45.69107" lon="6.26249">
        <ele>1985.94</ele>
        <time>2015-04-06T11:39:01Z</time>
      </trkpt>
      <trkpt lat="45.69117" lon="6.26271">
        <ele>1996.49</ele>
        <time>2015-04-06T11:39:47Z</time>
      </trkpt>
      <trkpt lat="45.69102" lon="6.26257">
        <ele>2002.12</ele>
        <time>2015-04-06T11:40:38Z</time>
      </trkpt>
      <trkpt lat="45.69086" lon="6.2627">
        <ele>2002.42</ele>
        <time>2015-04-06T11:42:04Z</time>
      </trkpt>
      <trkpt lat="45.69093" lon="6.26294">
        <ele>2017.13</ele>
        <time>2015-04-06T11:42:58Z</time>
      </trkpt>
      <trkpt lat="45.69075" lon="6.2629">
        <ele>2026.9</ele>
        <time>2015-04-06T11:44:18Z</time>
      </trkpt>
      <trkpt lat="45.69058" lon="6.26279">
        <ele>2032.39</ele>
        <time>2015-04-06T11:44:56Z</time>
      </trkpt>
      <trkpt lat="45.69041" lon="6.26272">
        <ele>2039.37</ele>
        <time>2015-04-06T11:45:37Z</time>
      </trkpt>
      <trkpt lat="45.69025" lon="6.26285">
        <ele>2045.47</ele>
        <time>2015-04-06T11:47:18Z</time>
      </trkpt>
      <trkpt lat="45.69011" lon="6.26268">
        <ele>2056.96</ele>
        <time>2015-04-06T11:48:12Z</time>
      </trkpt>
      <trkpt lat="45.68997" lon="6.2625">
        <ele>2061.87</ele>
        <time>2015-04-06T11:48:48Z</time>
      </trkpt>
      <trkpt lat="45.68985" lon="6.26231">
        <ele>2066.5</ele>
        <time>2015-04-06T11:49:24Z</time>
      </trkpt>
      <trkpt lat="45.6897" lon="6.26217">
        <ele>2073.76</ele>
        <time>2015-04-06T11:50:00Z</time>
      </trkpt>
      <trkpt lat="45.68953" lon="6.26207">
        <ele>2079.77</ele>
        <time>2015-04-06T11:50:55Z</time>
      </trkpt>
      <trkpt lat="45.68935" lon="6.26206">
        <ele>2085.25</ele>
        <time>2015-04-06T11:51:47Z</time>
      </trkpt>
      <trkpt lat="45.68919" lon="6.26194">
        <ele>2093.46</ele>
        <time>2015-04-06T11:52:17Z</time>
      </trkpt>
      <trkpt lat="45.68908" lon="6.26174">
        <ele>2101.24</ele>
        <time>2015-04-06T11:52:51Z</time>
      </trkpt>
      <trkpt lat="45.68896" lon="6.26153">
        <ele>2109.01</ele>
        <time>2015-04-06T11:53:38Z</time>
      </trkpt>
      <trkpt lat="45.68886" lon="6.26132">
        <ele>2111.53</ele>
        <time>2015-04-06T11:54:15Z</time>
      </trkpt>
      <trkpt lat="45.68875" lon="6.26112">
        <ele>2118.74</ele>
        <time>2015-04-06T11:55:43Z</time>
      </trkpt>
      <trkpt lat="45.68892" lon="6.26106">
        <ele>2108.53</ele>
        <time>2015-04-06T12:12:32Z</time>
      </trkpt>
      <trkpt lat="45.68906" lon="6.26086">
        <ele>2101.05</ele>
        <time>2015-04-06T12:12:41Z</time>
      </trkpt>
      <trkpt lat="45.68923" lon="6.26077">
        <ele>2089.77</ele>
        <time>2015-04-06T12:13:15Z</time>
      </trkpt>
      <trkpt lat="45.68939" lon="6.26062">
        <ele>2073.17</ele>
        <time>2015-04-06T12:13:48Z</time>
      </trkpt>
      <trkpt lat="45.6895" lon="6.26041">
        <ele>2059.29</ele>
        <time>2015-04-06T12:14:55Z</time>
      </trkpt>
      <trkpt lat="45.68964" lon="6.26024">
        <ele>2042.59</ele>
        <time>2015-04-06T12:15:21Z</time>
      </trkpt>
      <trkpt lat="45.68982" lon="6.26033">
        <ele>2027.76</ele>
        <time>2015-04-06T12:15:55Z</time>
      </trkpt>
      <trkpt lat="45.69" lon="6.26022">
        <ele>2009.68</ele>
        <time>2015-04-06T12:16:16Z</time>
      </trkpt>
      <trkpt lat="45.69018" lon="6.26031">
        <ele>2000.22</ele>
        <time>2015-04-06T12:16:24Z</time>
      </trkpt>
      <trkpt lat="45.69034" lon="6.26042">
        <ele>1991.54</ele>
        <time>2015-04-06T12:16:30Z</time>
      </trkpt>
      <trkpt lat="45.69037" lon="6.26015">
        <ele>1987.71</ele>
        <time>2015-04-06T12:16:42Z</time>
      </trkpt>
      <trkpt lat="45.69043" lon="6.2599">
        <ele>1992.25</ele>
        <time>2015-04-06T12:16:49Z</time>
      </trkpt>
      <trkpt lat="45.69048" lon="6.25963">
        <ele>1970.59</ele>
        <time>2015-04-06T12:17:15Z</time>
      </trkpt>
      <trkpt lat="45.69064" lon="6.25952">
        <ele>1955.12</ele>
        <time>2015-04-06T12:17:23Z</time>
      </trkpt>
      <trkpt lat="45.69081" lon="6.2594">
        <ele>1945.68</ele>
        <time>2015-04-06T12:17:29Z</time>
      </trkpt>
      <trkpt lat="45.6907" lon="6.25914">
        <ele>1935.18</ele>
        <time>2015-04-06T12:17:57Z</time>
      </trkpt>
      <trkpt lat="45.69089" lon="6.25902">
        <ele>1924.11</ele>
        <time>2015-04-06T12:18:06Z</time>
      </trkpt>
      <trkpt lat="45.69103" lon="6.25879">
        <ele>1906.78</ele>
        <time>2015-04-06T12:18:18Z</time>
      </trkpt>
      <trkpt lat="45.69116" lon="6.25858">
        <ele>1900.32</ele>
        <time>2015-04-06T12:18:23Z</time>
      </trkpt>
      <trkpt lat="45.69138" lon="6.25855">
        <ele>1897.87</ele>
        <time>2015-04-06T12:18:28Z</time>
      </trkpt>
      <trkpt lat="45.6915" lon="6.25835">
        <ele>1865.84</ele>
        <time>2015-04-06T12:19:02Z</time>
      </trkpt>
      <trkpt lat="45.69161" lon="6.25814">
        <ele>1862.6</ele>
        <time>2015-04-06T12:19:07Z</time>
      </trkpt>
      <trkpt lat="45.69179" lon="6.25804">
        <ele>1861.04</ele>
        <time>2015-04-06T12:19:11Z</time>
      </trkpt>
      <trkpt lat="45.69193" lon="6.25787">
        <ele>1836.79</ele>
        <time>2015-04-06T12:19:51Z</time>
      </trkpt>
      <trkpt lat="45.69208" lon="6.25768">
        <ele>1832.57</ele>
        <time>2015-04-06T12:19:56Z</time>
      </trkpt>
      <trkpt lat="45.69229" lon="6.25756">
        <ele>1824.38</ele>
        <time>2015-04-06T12:20:01Z</time>
      </trkpt>
      <trkpt lat="45.69246" lon="6.25738">
        <ele>1812.64</ele>
        <time>2015-04-06T12:20:07Z</time>
      </trkpt>
      <trkpt lat="45.69262" lon="6.25721">
        <ele>1805.35</ele>
        <time>2015-04-06T12:20:12Z</time>
      </trkpt>
      <trkpt lat="45.69278" lon="6.25705">
        <ele>1797.18</ele>
        <time>2015-04-06T12:20:18Z</time>
      </trkpt>
      <trkpt lat="45.69265" lon="6.25723">
        <ele>1779.12</ele>
        <time>2015-04-06T12:20:39Z</time>
      </trkpt>
      <trkpt lat="45.69283" lon="6.25705">
        <ele>1769.37</ele>
        <time>2015-04-06T12:20:47Z</time>
      </trkpt>
      <trkpt lat="45.693" lon="6.25688">
        <ele>1763.46</ele>
        <time>2015-04-06T12:20:52Z</time>
      </trkpt>
      <trkpt lat="45.69302" lon="6.25661">
        <ele>1754.82</ele>
        <time>2015-04-06T12:22:51Z</time>
      </trkpt>
      <trkpt lat="45.69309" lon="6.25633">
        <ele>1751.57</ele>
        <time>2015-04-06T12:22:54Z</time>
      </trkpt>
      <trkpt lat="45.69315" lon="6.25606">
        <ele>1750.55</ele>
        <time>2015-04-06T12:23:00Z</time>
      </trkpt>
      <trkpt lat="45.69315" lon="6.25577">
        <ele>1746.63</ele>
        <time>2015-04-06T12:23:07Z</time>
      </trkpt>
      <trkpt lat="45.69347" lon="6.25572">
        <ele>1740.72</ele>
        <time>2015-04-06T12:23:12Z</time>
      </trkpt>
      <trkpt lat="45.69365" lon="6.25581">
        <ele>1728.72</ele>
        <time>2015-04-06T12:23:17Z</time>
      </trkpt>
      <trkpt lat="45.69385" lon="6.25582">
        <ele>1718.66</ele>
        <time>2015-04-06T12:23:22Z</time>
      </trkpt>
      <trkpt lat="45.69394" lon="6.25557">
        <ele>1704.89</ele>
        <time>2015-04-06T12:23:44Z</time>
      </trkpt>
      <trkpt lat="45.69415" lon="6.25555">
        <ele>1693.63</ele>
        <time>2015-04-06T12:23:50Z</time>
      </trkpt>
      <trkpt lat="45.69433" lon="6.25556">
        <ele>1676.29</ele>
        <time>2015-04-06T12:24:14Z</time>
      </trkpt>
      <trkpt lat="45.69455" lon="6.25566">
        <ele>1668.68</ele>
        <time>2015-04-06T12:24:20Z</time>
      </trkpt>
      <trkpt lat="45.69473" lon="6.25576">
        <ele>1663.91</ele>
        <time>2015-04-06T12:24:25Z</time>
      </trkpt>
      <trkpt lat="45.69494" lon="6.25571">
        <ele>1658.82</ele>
        <time>2015-04-06T12:24:30Z</time>
      </trkpt>
      <trkpt lat="45.69513" lon="6.25563">
        <ele>1650.38</ele>
        <time>2015-04-06T12:24:36Z</time>
      </trkpt>
      <trkpt lat="45.69533" lon="6.25565">
        <ele>1646.11</ele>
        <time>2015-04-06T12:25:13Z</time>
      </trkpt>
      <trkpt lat="45.69554" lon="6.25556">
        <ele>1640.74</ele>
        <time>2015-04-06T12:25:18Z</time>
      </trkpt>
      <trkpt lat="45.69567" lon="6.25533">
        <ele>1636.29</ele>
        <time>2015-04-06T12:25:22Z</time>
      </trkpt>
      <trkpt lat="45.69586" lon="6.25515">
        <ele>1636.45</ele>
        <time>2015-04-06T12:25:26Z</time>
      </trkpt>
      <trkpt lat="45.69606" lon="6.25513">
        <ele>1630.31</ele>
        <time>2015-04-06T12:25:31Z</time>
      </trkpt>
      <trkpt lat="45.69627" lon="6.25519">
        <ele>1622.04</ele>
        <time>2015-04-06T12:25:37Z</time>
      </trkpt>
      <trkpt lat="45.69645" lon="6.25519">
        <ele>1617.38</ele>
        <time>2015-04-06T12:25:41Z</time>
      </trkpt>
      <trkpt lat="45.69665" lon="6.25499">
        <ele>1617.96</ele>
        <time>2015-04-06T12:25:45Z</time>
      </trkpt>
      <trkpt lat="45.6969" lon="6.255">
        <ele>1616.71</ele>
        <time>2015-04-06T12:25:48Z</time>
      </trkpt>
      <trkpt lat="45.69711" lon="6.25511">
        <ele>1614.93</ele>
        <time>2015-04-06T12:25:51Z</time>
      </trkpt>
      <trkpt lat="45.69731" lon="6.25513">
        <ele>1613.08</ele>
        <time>2015-04-06T12:25:54Z</time>
      </trkpt>
      <trkpt lat="45.69749" lon="6.25495">
        <ele>1600.12</ele>
        <time>2015-04-06T12:26:01Z</time>
      </trkpt>
      <trkpt lat="45.69768" lon="6.25505">
        <ele>1595.4</ele>
        <time>2015-04-06T12:26:07Z</time>
      </trkpt>
      <trkpt lat="45.69784" lon="6.25493">
        <ele>1587.39</ele>
        <time>2015-04-06T12:26:21Z</time>
      </trkpt>
      <trkpt lat="45.69794" lon="6.25518">
        <ele>1582.15</ele>
        <time>2015-04-06T12:26:36Z</time>
      </trkpt>
      <trkpt lat="45.69812" lon="6.25524">
        <ele>1576.49</ele>
        <time>2015-04-06T12:26:43Z</time>
      </trkpt>
      <trkpt lat="45.69827" lon="6.25545">
        <ele>1584.02</ele>
        <time>2015-04-06T12:32:27Z</time>
      </trkpt>
      <trkpt lat="45.69848" lon="6.25555">
        <ele>1582.42</ele>
        <time>2015-04-06T12:32:32Z</time>
      </trkpt>
      <trkpt lat="45.69865" lon="6.25564">
        <ele>1579.96</ele>
        <time>2015-04-06T12:32:36Z</time>
      </trkpt>
      <trkpt lat="45.69874" lon="6.25588">
        <ele>1576.5</ele>
        <time>2015-04-06T12:32:40Z</time>
      </trkpt>
      <trkpt lat="45.69891" lon="6.25597">
        <ele>1574.84</ele>
        <time>2015-04-06T12:32:44Z</time>
      </trkpt>
      <trkpt lat="45.69913" lon="6.25608">
        <ele>1572.86</ele>
        <time>2015-04-06T12:32:48Z</time>
      </trkpt>
      <trkpt lat="45.69931" lon="6.25618">
        <ele>1571.68</ele>
        <time>2015-04-06T12:32:52Z</time>
      </trkpt>
      <trkpt lat="45.69927" lon="6.25645">
        <ele>1568.05</ele>
        <time>2015-04-06T12:32:55Z</time>
      </trkpt>
      <trkpt lat="45.69944" lon="6.25658">
        <ele>1562.06</ele>
        <time>2015-04-06T12:32:59Z</time>
      </trkpt>
      <trkpt lat="45.69961" lon="6.25677">
        <ele>1554.63</ele>
        <time>2015-04-06T12:33:03Z</time>
      </trkpt>
      <trkpt lat="45.69974" lon="6.25697">
        <ele>1549.79</ele>
        <time>2015-04-06T12:33:07Z</time>
      </trkpt>
      <trkpt lat="45.69991" lon="6.25707">
        <ele>1544.42</ele>
        <time>2015-04-06T12:33:11Z</time>
      </trkpt>
      <trkpt lat="45.70008" lon="6.25729">
        <ele>1538.77</ele>
        <time>2015-04-06T12:33:15Z</time>
      </trkpt>
      <trkpt lat="45.70026" lon="6.25747">
        <ele>1534.05</ele>
        <time>2015-04-06T12:33:19Z</time>
      </trkpt>
      <trkpt lat="45.7004" lon="6.25771">
        <ele>1528.63</ele>
        <time>2015-04-06T12:33:23Z</time>
      </trkpt>
      <trkpt lat="45.70057" lon="6.25792">
        <ele>1522.6</ele>
        <time>2015-04-06T12:33:27Z</time>
      </trkpt>
      <trkpt lat="45.70069" lon="6.25818">
        <ele>1516.91</ele>
        <time>2015-04-06T12:33:31Z</time>
      </trkpt>
      <trkpt lat="45.70086" lon="6.25828">
        <ele>1507.52</ele>
        <time>2015-04-06T12:34:36Z</time>
      </trkpt>
      <trkpt lat="45.70101" lon="6.25852">
        <ele>1501.03</ele>
        <time>2015-04-06T12:34:40Z</time>
      </trkpt>
      <trkpt lat="45.70111" lon="6.2588">
        <ele>1498.75</ele>
        <time>2015-04-06T12:34:44Z</time>
      </trkpt>
      <trkpt lat="45.70121" lon="6.25904">
        <ele>1496.61</ele>
        <time>2015-04-06T12:34:48Z</time>
      </trkpt>
      <trkpt lat="45.70141" lon="6.25916">
        <ele>1491.41</ele>
        <time>2015-04-06T12:34:52Z</time>
      </trkpt>
      <trkpt lat="45.70159" lon="6.25916">
        <ele>1488.02</ele>
        <time>2015-04-06T12:34:55Z</time>
      </trkpt>
      <trkpt lat="45.70177" lon="6.25918">
        <ele>1484.59</ele>
        <time>2015-04-06T12:34:58Z</time>
      </trkpt>
      <trkpt lat="45.70196" lon="6.25919">
        <ele>1481.54</ele>
        <time>2015-04-06T12:35:01Z</time>
      </trkpt>
      <trkpt lat="45.70215" lon="6.2593">
        <ele>1477.42</ele>
        <time>2015-04-06T12:35:13Z</time>
      </trkpt>
      <trkpt lat="45.70228" lon="6.25955">
        <ele>1469.19</ele>
        <time>2015-04-06T12:35:19Z</time>
      </trkpt>
      <trkpt lat="45.70211" lon="6.25966">
        <ele>1462.05</ele>
        <time>2015-04-06T12:35:24Z</time>
      </trkpt>
      <trkpt lat="45.7021" lon="6.25995">
        <ele>1459.25</ele>
        <time>2015-04-06T12:35:28Z</time>
      </trkpt>
      <trkpt lat="45.70221" lon="6.26019">
        <ele>1456.45</ele>
        <time>2015-04-06T12:35:32Z</time>
      </trkpt>
      <trkpt lat="45.70242" lon="6.26028">
        <ele>1449.59</ele>
        <time>2015-04-06T12:35:36Z</time>
      </trkpt>
      <trkpt lat="45.70258" lon="6.26042">
        <ele>1444.6</ele>
        <time>2015-04-06T12:35:40Z</time>
      </trkpt>
      <trkpt lat="45.70277" lon="6.2605">
        <ele>1438.97</ele>
        <time>2015-04-06T12:35:44Z</time>
      </trkpt>
      <trkpt lat="45.70292" lon="6.26066">
        <ele>1436.25</ele>
        <time>2015-04-06T12:35:48Z</time>
      </trkpt>
      <trkpt lat="45.70306" lon="6.26085">
        <ele>1434.01</ele>
        <time>2015-04-06T12:35:52Z</time>
      </trkpt>
      <trkpt lat="45.70321" lon="6.26105">
        <ele>1431.94</ele>
        <time>2015-04-06T12:35:56Z</time>
      </trkpt>
      <trkpt lat="45.7034" lon="6.26115">
        <ele>1425.68</ele>
        <time>2015-04-06T12:36:00Z</time>
      </trkpt>
      <trkpt lat="45.70355" lon="6.26136">
        <ele>1422.29</ele>
        <time>2015-04-06T12:36:04Z</time>
      </trkpt>
      <trkpt lat="45.70374" lon="6.26146">
        <ele>1417.08</ele>
        <time>2015-04-06T12:36:08Z</time>
      </trkpt>
      <trkpt lat="45.70394" lon="6.2615">
        <ele>1414.88</ele>
        <time>2015-04-06T12:36:12Z</time>
      </trkpt>
      <trkpt lat="45.70416" lon="6.26155">
        <ele>1410.18</ele>
        <time>2015-04-06T12:36:16Z</time>
      </trkpt>
      <trkpt lat="45.70435" lon="6.26171">
        <ele>1404.58</ele>
        <time>2015-04-06T12:36:21Z</time>
      </trkpt>
      <trkpt lat="45.70455" lon="6.26178">
        <ele>1400.63</ele>
        <time>2015-04-06T12:36:26Z</time>
      </trkpt>
      <trkpt lat="45.70438" lon="6.26189">
        <ele>1386.38</ele>
        <time>2015-04-06T12:36:48Z</time>
      </trkpt>
      <trkpt lat="45.7042" lon="6.26198">
        <ele>1387.64</ele>
        <time>2015-04-06T12:36:51Z</time>
      </trkpt>
      <trkpt lat="45.7041" lon="6.26226">
        <ele>1387.04</ele>
        <time>2015-04-06T12:36:54Z</time>
      </trkpt>
      <trkpt lat="45.70429" lon="6.26236">
        <ele>1386.56</ele>
        <time>2015-04-06T12:36:58Z</time>
      </trkpt>
      <trkpt lat="45.7045" lon="6.26239">
        <ele>1382.66</ele>
        <time>2015-04-06T12:37:01Z</time>
      </trkpt>
      <trkpt lat="45.70467" lon="6.26262">
        <ele>1374.1</ele>
        <time>2015-04-06T12:37:05Z</time>
      </trkpt>
      <trkpt lat="45.70482" lon="6.26282">
        <ele>1368.82</ele>
        <time>2015-04-06T12:37:09Z</time>
      </trkpt>
      <trkpt lat="45.70498" lon="6.263">
        <ele>1362.6</ele>
        <time>2015-04-06T12:37:14Z</time>
      </trkpt>
      <trkpt lat="45.70513" lon="6.26322">
        <ele>1357.66</ele>
        <time>2015-04-06T12:37:18Z</time>
      </trkpt>
      <trkpt lat="45.70523" lon="6.26343">
        <ele>1352.73</ele>
        <time>2015-04-06T12:37:22Z</time>
      </trkpt>
      <trkpt lat="45.70531" lon="6.26371">
        <ele>1347.1</ele>
        <time>2015-04-06T12:37:27Z</time>
      </trkpt>
      <trkpt lat="45.70547" lon="6.26387">
        <ele>1344.57</ele>
        <time>2015-04-06T12:37:31Z</time>
      </trkpt>
      <trkpt lat="45.70555" lon="6.26413">
        <ele>1343.88</ele>
        <time>2015-04-06T12:37:36Z</time>
      </trkpt>
      <trkpt lat="45.70565" lon="6.26435">
        <ele>1337.24</ele>
        <time>2015-04-06T12:37:40Z</time>
      </trkpt>
      <trkpt lat="45.70575" lon="6.26459">
        <ele>1329.65</ele>
        <time>2015-04-06T12:37:45Z</time>
      </trkpt>
      <trkpt lat="45.70577" lon="6.26489">
        <ele>1322.99</ele>
        <time>2015-04-06T12:37:51Z</time>
      </trkpt>
      <trkpt lat="45.70585" lon="6.26513">
        <ele>1308.64</ele>
        <time>2015-04-06T12:38:33Z</time>
      </trkpt>
      <trkpt lat="45.70587" lon="6.26541">
        <ele>1311.13</ele>
        <time>2015-04-06T12:38:51Z</time>
      </trkpt>
      <trkpt lat="45.706" lon="6.26564">
        <ele>1303.22</ele>
        <time>2015-04-06T12:39:48Z</time>
      </trkpt>
      <trkpt lat="45.70606" lon="6.26595">
        <ele>1299.51</ele>
        <time>2015-04-06T12:39:52Z</time>
      </trkpt>
      <trkpt lat="45.70615" lon="6.26625">
        <ele>1299.03</ele>
        <time>2015-04-06T12:39:57Z</time>
      </trkpt>
      <trkpt lat="45.70634" lon="6.26635">
        <ele>1294.56</ele>
        <time>2015-04-06T12:40:01Z</time>
      </trkpt>
      <trkpt lat="45.7065" lon="6.26654">
        <ele>1284.5</ele>
        <time>2015-04-06T12:42:14Z</time>
      </trkpt>
      <trkpt lat="45.70666" lon="6.26676">
        <ele>1282.34</ele>
        <time>2015-04-06T12:42:18Z</time>
      </trkpt>
      <trkpt lat="45.70675" lon="6.26704">
        <ele>1279.68</ele>
        <time>2015-04-06T12:42:23Z</time>
      </trkpt>
      <trkpt lat="45.70689" lon="6.26728">
        <ele>1277.35</ele>
        <time>2015-04-06T12:42:27Z</time>
      </trkpt>
      <trkpt lat="45.70708" lon="6.26743">
        <ele>1279.13</ele>
        <time>2015-04-06T12:42:30Z</time>
      </trkpt>
      <trkpt lat="45.70724" lon="6.26759">
        <ele>1278.23</ele>
        <time>2015-04-06T12:42:33Z</time>
      </trkpt>
      <trkpt lat="45.70739" lon="6.26773">
        <ele>1274.64</ele>
        <time>2015-04-06T12:42:37Z</time>
      </trkpt>
      <trkpt lat="45.70749" lon="6.26798">
        <ele>1273.67</ele>
        <time>2015-04-06T12:42:40Z</time>
      </trkpt>
      <trkpt lat="45.70757" lon="6.26825">
        <ele>1271.17</ele>
        <time>2015-04-06T12:42:43Z</time>
      </trkpt>
      <trkpt lat="45.70772" lon="6.26844">
        <ele>1270.99</ele>
        <time>2015-04-06T12:42:46Z</time>
      </trkpt>
      <trkpt lat="45.70777" lon="6.26875">
        <ele>1266.43</ele>
        <time>2015-04-06T12:42:50Z</time>
      </trkpt>
      <trkpt lat="45.70795" lon="6.26895">
        <ele>1257.75</ele>
        <time>2015-04-06T12:42:55Z</time>
      </trkpt>
      <trkpt lat="45.7081" lon="6.26919">
        <ele>1256.11</ele>
        <time>2015-04-06T12:42:59Z</time>
      </trkpt>
      <trkpt lat="45.70824" lon="6.26935">
        <ele>1247.78</ele>
        <time>2015-04-06T12:47:21Z</time>
      </trkpt>
      <trkpt lat="45.70838" lon="6.26953">
        <ele>1248.33</ele>
        <time>2015-04-06T12:47:34Z</time>
      </trkpt>
      <trkpt lat="45.70856" lon="6.26956">
        <ele>1250.5</ele>
        <time>2015-04-06T12:47:48Z</time>
      </trkpt>
      <trkpt lat="45.70875" lon="6.2696">
        <ele>1243.42</ele>
        <time>2015-04-06T12:48:08Z</time>
      </trkpt>
      <trkpt lat="45.70893" lon="6.26966">
        <ele>1240.78</ele>
        <time>2015-04-06T12:48:32Z</time>
      </trkpt>
      <trkpt lat="45.70911" lon="6.26971">
        <ele>1240.05</ele>
        <time>2015-04-06T12:48:49Z</time>
      </trkpt>
      <trkpt lat="45.70927" lon="6.26985">
        <ele>1238.7</ele>
        <time>2015-04-06T12:49:03Z</time>
      </trkpt>
      <trkpt lat="45.70941" lon="6.27">
        <ele>1236.5</ele>
        <time>2015-04-06T12:49:17Z</time>
      </trkpt>
      <trkpt lat="45.70957" lon="6.27014">
        <ele>1234.99</ele>
        <time>2015-04-06T12:49:33Z</time>
      </trkpt>
      <trkpt lat="45.70972" lon="6.2703">
        <ele>1229.49</ele>
        <time>2015-04-06T12:49:50Z</time>
      </trkpt>
      <trkpt lat="45.7099" lon="6.27042">
        <ele>1234.9</ele>
        <time>2015-04-06T12:50:04Z</time>
      </trkpt>
      <trkpt lat="45.71007" lon="6.27052">
        <ele>1235.22</ele>
        <time>2015-04-06T12:50:20Z</time>
      </trkpt>
      <trkpt lat="45.71023" lon="6.27064">
        <ele>1233.1</ele>
        <time>2015-04-06T12:50:39Z</time>
      </trkpt>
      <trkpt lat="45.7104" lon="6.27077">
        <ele>1225.73</ele>
        <time>2015-04-06T12:50:57Z</time>
      </trkpt>
      <trkpt lat="45.71057" lon="6.27087">
        <ele>1230.12</ele>
        <time>2015-04-06T12:51:14Z</time>
      </trkpt>
      <trkpt lat="45.71074" lon="6.27093">
        <ele>1235.06</ele>
        <time>2015-04-06T12:51:29Z</time>
      </trkpt>
      <trkpt lat="45.71092" lon="6.27103">
        <ele>1226.04</ele>
        <time>2015-04-06T12:51:48Z</time>
      </trkpt>
      <trkpt lat="45.71109" lon="6.2711">
        <ele>1224.81</ele>
        <time>2015-04-06T12:52:02Z</time>
      </trkpt>
      <trkpt lat="45.71128" lon="6.27115">
        <ele>1223.63</ele>
        <time>2015-04-06T12:52:19Z</time>
      </trkpt>
      <trkpt lat="45.71146" lon="6.27119">
        <ele>1206.92</ele>
        <time>2015-04-06T12:52:38Z</time>
      </trkpt>
      <trkpt lat="45.71164" lon="6.27127">
        <ele>1204.46</ele>
        <time>2015-04-06T12:52:56Z</time>
      </trkpt>
      <trkpt lat="45.71182" lon="6.27134">
        <ele>1199.87</ele>
        <time>2015-04-06T12:53:13Z</time>
      </trkpt>
      <trkpt lat="45.71201" lon="6.27141">
        <ele>1201.1</ele>
        <time>2015-04-06T12:53:29Z</time>
      </trkpt>
      <trkpt lat="45.71219" lon="6.27142">
        <ele>1197.26</ele>
        <time>2015-04-06T12:53:43Z</time>
      </trkpt>
      <trkpt lat="45.71237" lon="6.27147">
        <ele>1190.63</ele>
        <time>2015-04-06T12:54:02Z</time>
      </trkpt>
      <trkpt lat="45.71251" lon="6.27164">
        <ele>1187.41</ele>
        <time>2015-04-06T12:54:17Z</time>
      </trkpt>
      <trkpt lat="45.71268" lon="6.27174">
        <ele>1188.34</ele>
        <time>2015-04-06T12:54:31Z</time>
      </trkpt>
      <trkpt lat="45.71282" lon="6.27191">
        <ele>1185.7</ele>
        <time>2015-04-06T12:54:47Z</time>
      </trkpt>
      <trkpt lat="45.71298" lon="6.27203">
        <ele>1179.22</ele>
        <time>2015-04-06T12:55:05Z</time>
      </trkpt>
      <trkpt lat="45.7131" lon="6.27223">
        <ele>1182.39</ele>
        <time>2015-04-06T12:55:20Z</time>
      </trkpt>
      <trkpt lat="45.71319" lon="6.27245">
        <ele>1175.76</ele>
        <time>2015-04-06T12:55:37Z</time>
      </trkpt>
      <trkpt lat="45.7133" lon="6.27267">
        <ele>1168.82</ele>
        <time>2015-04-06T12:55:55Z</time>
      </trkpt>
      <trkpt lat="45.71336" lon="6.27292">
        <ele>1166.15</ele>
        <time>2015-04-06T12:56:13Z</time>
      </trkpt>
      <trkpt lat="45.71339" lon="6.27318">
        <ele>1160.66</ele>
        <time>2015-04-06T12:56:32Z</time>
      </trkpt>
      <trkpt lat="45.7134" lon="6.27345">
        <ele>1158.84</ele>
        <time>2015-04-06T12:56:48Z</time>
      </trkpt>
      <trkpt lat="45.71335" lon="6.27371">
        <ele>1157.74</ele>
        <time>2015-04-06T12:57:05Z</time>
      </trkpt>
      <trkpt lat="45.71332" lon="6.27397">
        <ele>1155.09</ele>
        <time>2015-04-06T12:57:21Z</time>
      </trkpt>
      <trkpt lat="45.7133" lon="6.27423">
        <ele>1149.6</ele>
        <time>2015-04-06T12:57:41Z</time>
      </trkpt>
      <trkpt lat="45.71327" lon="6.2745">
        <ele>1146.09</ele>
        <time>2015-04-06T12:57:58Z</time>
      </trkpt>
      <trkpt lat="45.71332" lon="6.27476">
        <ele>1145.99</ele>
        <time>2015-04-06T12:58:14Z</time>
      </trkpt>
      <trkpt lat="45.71338" lon="6.275">
        <ele>1145.72</ele>
        <time>2015-04-06T12:58:29Z</time>
      </trkpt>
    </trkseg>
  </trk>
</gpx>